MU243 ZSPD-NZAA
Flight info
| Callsign | MU243 |
|---|---|
| Flight time | 10h 43m |
| Altitude | 35000 |
| Route | LAM81D LAMEN A593 SADLI Y590 BEDAR Y591 ISPIT Z41 AGIKA G339 PAKDO/N0495F370 G339 UNZ A597 ADBON/N0490F390 A597 LTO/N0486F410 A597 DUGAN |
| Aircraft | A359/H-SDE2E3GHIJ3J4J5LM1ORWXY/LB1D1 |
Departure
| Time | 2026-05-06 23:22 |
|---|---|
| Airport | Shanghai Pudong International Airport (ZSPD) |
Arrival
| Time | 2026-05-07 10:05 |
|---|---|
| Airport | Auckland International Airport (NZAA) |
| Time | Latitude | Longitude | Altitude | Speed | Heading |
|---|---|---|---|---|---|
| 2026-05-06 22:36 | 31.13391 | 121.80295 | 29 ft | 0 kts | 72° |
| 2026-05-06 23:12 | 31.13386 | 121.80278 | 29 ft | 4 kts | 72° |
| 2026-05-06 23:12 | 31.13378 | 121.80248 | 29 ft | 4 kts | 72° |
| 2026-05-06 23:13 | 31.13371 | 121.80221 | 26 ft | 4 kts | 68° |
| 2026-05-06 23:13 | 31.13358 | 121.80201 | 26 ft | 4 kts | 1° |
| 2026-05-06 23:13 | 31.13333 | 121.80208 | 27 ft | 3 kts | 340° |
| 2026-05-06 23:13 | 31.13329 | 121.80210 | 28 ft | 0 kts | 341° |
| 2026-05-06 23:17 | 31.13330 | 121.80210 | 28 ft | 2 kts | 341° |
| 2026-05-06 23:17 | 31.13407 | 121.80179 | 29 ft | 21 kts | 342° |
| 2026-05-06 23:17 | 31.13599 | 121.80108 | 29 ft | 37 kts | 342° |
| 2026-05-06 23:17 | 31.13869 | 121.80005 | 29 ft | 44 kts | 342° |
| 2026-05-06 23:18 | 31.14156 | 121.79896 | 29 ft | 44 kts | 342° |
| 2026-05-06 23:18 | 31.14443 | 121.79790 | 29 ft | 42 kts | 342° |
| 2026-05-06 23:18 | 31.14711 | 121.79688 | 29 ft | 37 kts | 342° |
| 2026-05-06 23:18 | 31.14981 | 121.79587 | 29 ft | 42 kts | 341° |
| 2026-05-06 23:19 | 31.15227 | 121.79492 | 28 ft | 36 kts | 342° |
| 2026-05-06 23:19 | 31.15481 | 121.79397 | 29 ft | 39 kts | 342° |
| 2026-05-06 23:19 | 31.15677 | 121.79289 | 29 ft | 20 kts | 292° |
| 2026-05-06 23:19 | 31.15637 | 121.79079 | 29 ft | 31 kts | 266° |
| 2026-05-06 23:20 | 31.15760 | 121.78954 | 28 ft | 31 kts | 342° |
| 2026-05-06 23:20 | 31.16008 | 121.78861 | 29 ft | 40 kts | 345° |
| 2026-05-06 23:20 | 31.16146 | 121.78768 | 29 ft | 25 kts | 281° |
| 2026-05-06 23:20 | 31.16080 | 121.78623 | 28 ft | 10 kts | 193° |
| 2026-05-06 23:21 | 31.15960 | 121.78662 | 28 ft | 25 kts | 160° |
| 2026-05-06 23:21 | 31.15838 | 121.78706 | 29 ft | 33 kts | 163° |
| 2026-05-06 23:21 | 31.15423 | 121.78864 | 27 ft | 91 kts | 162° |
| 2026-05-06 23:21 | 31.14655 | 121.79154 | 30 ft | 140 kts | 162° |
| 2026-05-06 23:22 | 31.13599 | 121.79553 | 181 ft | 167 kts | 162° |
| 2026-05-06 23:22 | 31.12489 | 121.79988 | 708 ft | 170 kts | 161° |
| 2026-05-06 23:22 | 31.11344 | 121.80450 | 1195 ft | 178 kts | 162° |
| 2026-05-06 23:22 | 31.10155 | 121.80940 | 1590 ft | 187 kts | 163° |
| 2026-05-06 23:23 | 31.08889 | 121.81468 | 1856 ft | 199 kts | 162° |
| 2026-05-06 23:23 | 31.07548 | 121.82037 | 2177 ft | 211 kts | 161° |
| 2026-05-06 23:23 | 31.06110 | 121.82562 | 2448 ft | 225 kts | 169° |
| 2026-05-06 23:23 | 31.04517 | 121.82956 | 2675 ft | 243 kts | 166° |
| 2026-05-06 23:24 | 31.02823 | 121.83450 | 2936 ft | 259 kts | 165° |
| 2026-05-06 23:24 | 31.01053 | 121.84017 | 3367 ft | 267 kts | 163° |
| 2026-05-06 23:24 | 30.99266 | 121.84672 | 3851 ft | 272 kts | 159° |
| 2026-05-06 23:24 | 30.97484 | 121.85462 | 4357 ft | 276 kts | 161° |
| 2026-05-06 23:25 | 30.95675 | 121.86257 | 4891 ft | 280 kts | 161° |
| 2026-05-06 23:25 | 30.93842 | 121.87073 | 5457 ft | 283 kts | 161° |
| 2026-05-06 23:25 | 30.91993 | 121.87891 | 6063 ft | 285 kts | 163° |
| 2026-05-06 23:25 | 30.90102 | 121.88576 | 6674 ft | 285 kts | 165° |
| 2026-05-06 23:26 | 30.88195 | 121.89233 | 7311 ft | 286 kts | 165° |
| 2026-05-06 23:26 | 30.86289 | 121.89903 | 7971 ft | 286 kts | 165° |
| 2026-05-06 23:26 | 30.84378 | 121.90592 | 8612 ft | 288 kts | 164° |
| 2026-05-06 23:26 | 30.82556 | 121.91584 | 9241 ft | 293 kts | 146° |
| 2026-05-06 23:27 | 30.81192 | 121.93341 | 9845 ft | 298 kts | 119° |
| 2026-05-06 23:27 | 30.80620 | 121.95667 | 10271 ft | 308 kts | 93° |
| 2026-05-06 23:27 | 30.81032 | 121.98148 | 10485 ft | 323 kts | 64° |
| 2026-05-06 23:27 | 30.82012 | 122.00562 | 10719 ft | 337 kts | 69° |
| 2026-05-06 23:28 | 30.82830 | 122.03180 | 10949 ft | 351 kts | 71° |
| 2026-05-06 23:28 | 30.83350 | 122.04988 | 11094 ft | 360 kts | 72° |
| 2026-05-06 23:28 | 30.84406 | 122.08749 | 11407 ft | 377 kts | 72° |
| 2026-05-06 23:28 | 30.85226 | 122.11691 | 11611 ft | 389 kts | 72° |
| 2026-05-06 23:29 | 30.86073 | 122.14726 | 11810 ft | 400 kts | 72° |
| 2026-05-06 23:29 | 30.87194 | 122.17724 | 12028 ft | 409 kts | 61° |
| 2026-05-06 23:29 | 30.88640 | 122.20600 | 12383 ft | 414 kts | 59° |
| 2026-05-06 23:29 | 30.90147 | 122.23477 | 12737 ft | 418 kts | 58° |
| 2026-05-06 23:30 | 30.91172 | 122.25435 | 12988 ft | 421 kts | 59° |
| 2026-05-06 23:30 | 30.92701 | 122.28361 | 13355 ft | 425 kts | 59° |
| 2026-05-06 23:30 | 30.94239 | 122.31317 | 13714 ft | 429 kts | 59° |
| 2026-05-06 23:30 | 30.95789 | 122.34303 | 14040 ft | 432 kts | 59° |
| 2026-05-06 23:31 | 30.97323 | 122.37261 | 14387 ft | 434 kts | 59° |
| 2026-05-06 23:31 | 30.98839 | 122.40313 | 14725 ft | 437 kts | 63° |
| 2026-05-06 23:31 | 30.99830 | 122.43657 | 15021 ft | 438 kts | 81° |
| 2026-05-06 23:31 | 31.00063 | 122.47189 | 15352 ft | 439 kts | 91° |
| 2026-05-06 23:32 | 31.00069 | 122.50755 | 15654 ft | 442 kts | 92° |
| 2026-05-06 23:32 | 31.00054 | 122.54345 | 15966 ft | 444 kts | 92° |
| 2026-05-06 23:32 | 31.00044 | 122.57965 | 16273 ft | 447 kts | 91° |
| 2026-05-06 23:32 | 31.00039 | 122.61602 | 16587 ft | 450 kts | 91° |
| 2026-05-06 23:33 | 31.00036 | 122.65265 | 16878 ft | 453 kts | 91° |
| 2026-05-06 23:33 | 31.00035 | 122.68949 | 17172 ft | 456 kts | 91° |
| 2026-05-06 23:33 | 31.00034 | 122.72659 | 17470 ft | 459 kts | 91° |
| 2026-05-06 23:33 | 31.00033 | 122.76386 | 17781 ft | 461 kts | 91° |
| 2026-05-06 23:34 | 31.00030 | 122.80137 | 18056 ft | 464 kts | 91° |
| 2026-05-06 23:34 | 31.00027 | 122.83910 | 18330 ft | 467 kts | 91° |
| 2026-05-06 23:34 | 31.00023 | 122.87699 | 18585 ft | 469 kts | 91° |
| 2026-05-06 23:34 | 31.00017 | 122.91507 | 18857 ft | 470 kts | 91° |
| 2026-05-06 23:35 | 31.00050 | 122.95323 | 19140 ft | 472 kts | 88° |
| 2026-05-06 23:35 | 31.00540 | 122.99105 | 19386 ft | 474 kts | 74° |
| 2026-05-06 23:35 | 31.01769 | 123.02666 | 19637 ft | 474 kts | 59° |
| 2026-05-06 23:35 | 31.03565 | 123.05893 | 19920 ft | 474 kts | 53° |
| 2026-05-06 23:36 | 31.05493 | 123.09020 | 20190 ft | 476 kts | 52° |
| 2026-05-06 23:36 | 31.07436 | 123.12149 | 20483 ft | 477 kts | 52° |
| 2026-05-06 23:36 | 31.09382 | 123.15298 | 20783 ft | 479 kts | 52° |
| 2026-05-06 23:36 | 31.11330 | 123.18463 | 21081 ft | 481 kts | 52° |
| 2026-05-06 23:37 | 31.13281 | 123.21644 | 21400 ft | 482 kts | 52° |
| 2026-05-06 23:37 | 31.15238 | 123.24840 | 21706 ft | 484 kts | 52° |
| 2026-05-06 23:37 | 31.17199 | 123.28048 | 22021 ft | 486 kts | 52° |
| 2026-05-06 23:37 | 31.19166 | 123.31269 | 22329 ft | 488 kts | 52° |
| 2026-05-06 23:38 | 31.21141 | 123.34505 | 22631 ft | 490 kts | 52° |
| 2026-05-06 23:38 | 31.23121 | 123.37755 | 22957 ft | 492 kts | 52° |
| 2026-05-06 23:38 | 31.25111 | 123.41022 | 23270 ft | 494 kts | 52° |
| 2026-05-06 23:38 | 31.27108 | 123.44304 | 23565 ft | 496 kts | 52° |
| 2026-05-06 23:39 | 31.29110 | 123.47598 | 23830 ft | 498 kts | 52° |
| 2026-05-06 23:39 | 31.31121 | 123.50909 | 24099 ft | 500 kts | 52° |
| 2026-05-06 23:39 | 31.33139 | 123.54233 | 24368 ft | 502 kts | 52° |
| 2026-05-06 23:39 | 31.35166 | 123.57570 | 24638 ft | 504 kts | 52° |
| 2026-05-06 23:40 | 31.37214 | 123.60912 | 24936 ft | 506 kts | 52° |
| 2026-05-06 23:40 | 31.39271 | 123.64268 | 25230 ft | 509 kts | 52° |
| 2026-05-06 23:40 | 31.41332 | 123.67638 | 25539 ft | 511 kts | 52° |
| 2026-05-06 23:40 | 31.43383 | 123.70994 | 25773 ft | 515 kts | 52° |
| 2026-05-06 23:41 | 31.45471 | 123.74417 | 26060 ft | 518 kts | 52° |
| 2026-05-06 23:41 | 31.47566 | 123.77856 | 26377 ft | 519 kts | 52° |
| 2026-05-06 23:41 | 31.49668 | 123.81308 | 26687 ft | 521 kts | 52° |
| 2026-05-06 23:41 | 31.51778 | 123.84778 | 26990 ft | 524 kts | 52° |
| 2026-05-06 23:42 | 31.53894 | 123.88261 | 27280 ft | 526 kts | 52° |
| 2026-05-06 23:42 | 31.56017 | 123.91759 | 27567 ft | 528 kts | 52° |
| 2026-05-06 23:42 | 31.58148 | 123.95275 | 27855 ft | 530 kts | 52° |
| 2026-05-06 23:42 | 31.60136 | 123.98938 | 28094 ft | 535 kts | 60° |
| 2026-05-06 23:43 | 31.61617 | 124.02955 | 28346 ft | 539 kts | 71° |
| 2026-05-06 23:43 | 31.62722 | 124.07168 | 28615 ft | 542 kts | 73° |
| 2026-05-06 23:43 | 31.63711 | 124.11440 | 28859 ft | 544 kts | 75° |
| 2026-05-06 23:43 | 31.64648 | 124.15749 | 29092 ft | 546 kts | 75° |
| 2026-05-06 23:44 | 31.65572 | 124.20079 | 29323 ft | 548 kts | 75° |
| 2026-05-06 23:44 | 31.66503 | 124.24426 | 29588 ft | 549 kts | 75° |
| 2026-05-06 23:44 | 31.67441 | 124.28763 | 29953 ft | 549 kts | 75° |
| 2026-05-06 23:44 | 31.68385 | 124.33084 | 30401 ft | 544 kts | 75° |
| 2026-05-06 23:45 | 31.69329 | 124.37377 | 30754 ft | 542 kts | 75° |
| 2026-05-06 23:45 | 31.70275 | 124.41662 | 31037 ft | 542 kts | 75° |
| 2026-05-06 23:45 | 31.71220 | 124.45944 | 31333 ft | 541 kts | 75° |
| 2026-05-06 23:45 | 31.72164 | 124.50221 | 31578 ft | 541 kts | 75° |
| 2026-05-06 23:46 | 31.73107 | 124.54504 | 31797 ft | 541 kts | 75° |
| 2026-05-06 23:46 | 31.74045 | 124.58775 | 32101 ft | 540 kts | 75° |
| 2026-05-06 23:46 | 31.74980 | 124.63043 | 32405 ft | 538 kts | 75° |
| 2026-05-06 23:46 | 31.75911 | 124.67298 | 32714 ft | 537 kts | 75° |
| 2026-05-06 23:47 | 31.76839 | 124.71550 | 33006 ft | 536 kts | 75° |
| 2026-05-06 23:47 | 31.77763 | 124.75793 | 33257 ft | 535 kts | 75° |
| 2026-05-06 23:47 | 31.78683 | 124.80024 | 33540 ft | 534 kts | 75° |
| 2026-05-06 23:47 | 31.79600 | 124.84245 | 33810 ft | 533 kts | 76° |
| 2026-05-06 23:48 | 31.80515 | 124.88467 | 34024 ft | 532 kts | 76° |
| 2026-05-06 23:48 | 31.81427 | 124.92680 | 34238 ft | 531 kts | 76° |
| 2026-05-06 23:48 | 31.82169 | 124.96939 | 34368 ft | 532 kts | 83° |
| 2026-05-06 23:48 | 31.82397 | 125.01272 | 34490 ft | 532 kts | 92° |
| 2026-05-06 23:49 | 31.82061 | 125.05593 | 34582 ft | 531 kts | 99° |
| 2026-05-06 23:49 | 31.81484 | 125.09827 | 34741 ft | 531 kts | 102° |
| 2026-05-06 23:49 | 31.80812 | 125.14083 | 34901 ft | 530 kts | 103° |
| 2026-05-06 23:50 | 31.79366 | 125.22614 | 35016 ft | 535 kts | 103° |
| 2026-05-06 23:50 | 31.77184 | 125.35532 | 35012 ft | 537 kts | 103° |
| 2026-05-06 23:51 | 31.75754 | 125.44150 | 35024 ft | 537 kts | 103° |
| 2026-05-06 23:51 | 31.74324 | 125.52770 | 35017 ft | 537 kts | 103° |
| 2026-05-06 23:52 | 31.72932 | 125.61389 | 35016 ft | 538 kts | 99° |
| 2026-05-06 23:52 | 31.73038 | 125.70152 | 35013 ft | 539 kts | 79° |
| 2026-05-06 23:53 | 31.74710 | 125.78743 | 35028 ft | 540 kts | 75° |
| 2026-05-06 23:53 | 31.76636 | 125.87273 | 35025 ft | 540 kts | 75° |
| 2026-05-06 23:54 | 31.78570 | 125.95802 | 35016 ft | 540 kts | 75° |
| 2026-05-06 23:54 | 31.80461 | 126.04352 | 35040 ft | 540 kts | 75° |
| 2026-05-06 23:55 | 31.82327 | 126.12910 | 35019 ft | 541 kts | 76° |
| 2026-05-06 23:55 | 31.84187 | 126.21486 | 35019 ft | 541 kts | 76° |
| 2026-05-06 23:56 | 31.86043 | 126.30064 | 35017 ft | 541 kts | 76° |
| 2026-05-06 23:56 | 31.87893 | 126.38639 | 35025 ft | 541 kts | 76° |
| 2026-05-06 23:57 | 31.89740 | 126.47232 | 35026 ft | 541 kts | 76° |
| 2026-05-06 23:57 | 31.91602 | 126.55817 | 35018 ft | 541 kts | 75° |
| 2026-05-06 23:58 | 31.93505 | 126.64385 | 35021 ft | 541 kts | 75° |
| 2026-05-06 23:58 | 31.95402 | 126.72950 | 35020 ft | 541 kts | 75° |
| 2026-05-06 23:59 | 31.97285 | 126.81520 | 35022 ft | 540 kts | 75° |
| 2026-05-06 23:59 | 31.99157 | 126.90093 | 35018 ft | 539 kts | 76° |
| 2026-05-07 00:00 | 32.01018 | 126.98647 | 35015 ft | 539 kts | 76° |
| 2026-05-07 00:00 | 32.02562 | 127.05765 | 35012 ft | 539 kts | 75° |
| 2026-05-07 00:01 | 32.05258 | 127.15492 | 35013 ft | 537 kts | 66° |
| 2026-05-07 00:01 | 32.08214 | 127.23585 | 35008 ft | 537 kts | 66° |
| 2026-05-07 00:02 | 32.10038 | 127.32095 | 35014 ft | 536 kts | 86° |
| 2026-05-07 00:02 | 32.10014 | 127.36478 | 35013 ft | 534 kts | 97° |
| 2026-05-07 00:02 | 32.09312 | 127.40758 | 35023 ft | 531 kts | 109° |
| 2026-05-07 00:03 | 32.07962 | 127.44782 | 35012 ft | 527 kts | 120° |
| 2026-05-07 00:03 | 32.06243 | 127.48591 | 35003 ft | 526 kts | 122° |
| 2026-05-07 00:03 | 32.02540 | 127.56055 | 35020 ft | 528 kts | 124° |
| 2026-05-07 00:04 | 31.98768 | 127.63488 | 35006 ft | 528 kts | 123° |
| 2026-05-07 00:04 | 31.95025 | 127.70949 | 35006 ft | 529 kts | 123° |
| 2026-05-07 00:05 | 31.91324 | 127.78382 | 35015 ft | 529 kts | 123° |
| 2026-05-07 00:05 | 31.87603 | 127.85856 | 35019 ft | 530 kts | 123° |
| 2026-05-07 00:06 | 31.83875 | 127.93330 | 35016 ft | 530 kts | 123° |
| 2026-05-07 00:06 | 31.80139 | 128.00798 | 35015 ft | 530 kts | 123° |
| 2026-05-07 00:07 | 31.76401 | 128.08257 | 35008 ft | 530 kts | 123° |
| 2026-05-07 00:07 | 31.72650 | 128.15727 | 35015 ft | 530 kts | 123° |
| 2026-05-07 00:08 | 31.68895 | 128.23189 | 35017 ft | 530 kts | 123° |
| 2026-05-07 00:08 | 31.65142 | 128.30633 | 35018 ft | 529 kts | 123° |
| 2026-05-07 00:09 | 31.61386 | 128.38068 | 35018 ft | 529 kts | 123° |
| 2026-05-07 00:09 | 31.57626 | 128.45498 | 35018 ft | 529 kts | 123° |
| 2026-05-07 00:10 | 31.53864 | 128.52916 | 35018 ft | 529 kts | 123° |
| 2026-05-07 00:10 | 31.50096 | 128.60331 | 35018 ft | 529 kts | 123° |
| 2026-05-07 00:11 | 31.46325 | 128.67738 | 35018 ft | 529 kts | 123° |
| 2026-05-07 00:11 | 31.42582 | 128.75075 | 35021 ft | 528 kts | 123° |
| 2026-05-07 00:12 | 31.38813 | 128.82451 | 35018 ft | 528 kts | 123° |
| 2026-05-07 00:12 | 31.35035 | 128.89828 | 35010 ft | 528 kts | 123° |
| 2026-05-07 00:13 | 31.31260 | 128.97187 | 35018 ft | 527 kts | 123° |
| 2026-05-07 00:13 | 31.27484 | 129.04533 | 35020 ft | 527 kts | 123° |
| 2026-05-07 00:14 | 31.23703 | 129.11874 | 35020 ft | 527 kts | 123° |
| 2026-05-07 00:14 | 31.19927 | 129.19195 | 35020 ft | 525 kts | 123° |
| 2026-05-07 00:15 | 31.16790 | 129.25263 | 35021 ft | 525 kts | 123° |
| 2026-05-07 00:15 | 31.13017 | 129.32550 | 35020 ft | 525 kts | 123° |
| 2026-05-07 00:16 | 31.09238 | 129.39833 | 35020 ft | 523 kts | 123° |
| 2026-05-07 00:16 | 31.05471 | 129.47082 | 35023 ft | 522 kts | 123° |
| 2026-05-07 00:17 | 31.01700 | 129.54325 | 35017 ft | 523 kts | 123° |
| 2026-05-07 00:17 | 30.97921 | 129.61568 | 35018 ft | 523 kts | 123° |
| 2026-05-07 00:18 | 30.94140 | 129.68802 | 35020 ft | 522 kts | 123° |
| 2026-05-07 00:18 | 30.90361 | 129.76020 | 35020 ft | 522 kts | 123° |
| 2026-05-07 00:19 | 30.86600 | 129.83189 | 35018 ft | 522 kts | 123° |
| 2026-05-07 00:19 | 30.82814 | 129.90394 | 35018 ft | 522 kts | 123° |
| 2026-05-07 00:20 | 30.79024 | 129.97592 | 35017 ft | 521 kts | 123° |
| 2026-05-07 00:20 | 30.75234 | 130.04777 | 35016 ft | 521 kts | 123° |
| 2026-05-07 00:21 | 30.71439 | 130.11961 | 35021 ft | 521 kts | 123° |
| 2026-05-07 00:21 | 30.67636 | 130.19144 | 35020 ft | 522 kts | 123° |
| 2026-05-07 00:22 | 30.63831 | 130.26317 | 35020 ft | 521 kts | 122° |
| 2026-05-07 00:22 | 30.60021 | 130.33487 | 35021 ft | 521 kts | 122° |
| 2026-05-07 00:23 | 30.56211 | 130.40645 | 35020 ft | 521 kts | 122° |
| 2026-05-07 00:23 | 30.52396 | 130.47800 | 35018 ft | 521 kts | 122° |
| 2026-05-07 00:24 | 30.48578 | 130.54946 | 35021 ft | 521 kts | 122° |
| 2026-05-07 00:24 | 30.44778 | 130.62046 | 35020 ft | 521 kts | 122° |
| 2026-05-07 00:25 | 30.40951 | 130.69183 | 35021 ft | 522 kts | 122° |
| 2026-05-07 00:25 | 30.37114 | 130.76327 | 35021 ft | 522 kts | 122° |
| 2026-05-07 00:26 | 30.33282 | 130.83449 | 35021 ft | 522 kts | 122° |
| 2026-05-07 00:26 | 30.29439 | 130.90576 | 35018 ft | 522 kts | 122° |
| 2026-05-07 00:27 | 30.25591 | 130.97701 | 35018 ft | 522 kts | 122° |
| 2026-05-07 00:27 | 30.21739 | 131.04824 | 35012 ft | 522 kts | 122° |
| 2026-05-07 00:28 | 30.17888 | 131.11930 | 35012 ft | 522 kts | 122° |
| 2026-05-07 00:28 | 30.14055 | 131.18990 | 35012 ft | 521 kts | 122° |
| 2026-05-07 00:29 | 30.10200 | 131.26079 | 35012 ft | 521 kts | 122° |
| 2026-05-07 00:30 | 30.02438 | 131.40202 | 35012 ft | 521 kts | 126° |
| 2026-05-07 00:30 | 29.97410 | 131.46170 | 35016 ft | 520 kts | 144° |
| 2026-05-07 00:31 | 29.91444 | 131.50892 | 35012 ft | 520 kts | 148° |
| 2026-05-07 00:31 | 29.85340 | 131.55374 | 35013 ft | 520 kts | 148° |
| 2026-05-07 00:32 | 29.79220 | 131.59849 | 35012 ft | 522 kts | 148° |
| 2026-05-07 00:32 | 29.73095 | 131.64365 | 35012 ft | 523 kts | 148° |
| 2026-05-07 00:33 | 29.66973 | 131.68895 | 35012 ft | 523 kts | 148° |
| 2026-05-07 00:33 | 29.60853 | 131.73422 | 35012 ft | 523 kts | 148° |
| 2026-05-07 00:34 | 29.54788 | 131.78055 | 35017 ft | 523 kts | 144° |
| 2026-05-07 00:34 | 29.48943 | 131.82979 | 35015 ft | 525 kts | 143° |
| 2026-05-07 00:35 | 29.43067 | 131.87963 | 35015 ft | 525 kts | 144° |
| 2026-05-07 00:35 | 29.37147 | 131.92906 | 35015 ft | 525 kts | 144° |
| 2026-05-07 00:36 | 29.31215 | 131.97814 | 35015 ft | 525 kts | 144° |
| 2026-05-07 00:36 | 29.25282 | 132.02690 | 35015 ft | 523 kts | 144° |
| 2026-05-07 00:37 | 29.19368 | 132.07547 | 35014 ft | 523 kts | 144° |
| 2026-05-07 00:37 | 29.13450 | 132.12406 | 35015 ft | 524 kts | 144° |
| 2026-05-07 00:38 | 29.07528 | 132.17264 | 35015 ft | 524 kts | 144° |
| 2026-05-07 00:38 | 29.01608 | 132.22112 | 35019 ft | 522 kts | 145° |
| 2026-05-07 00:39 | 28.95721 | 132.26928 | 35017 ft | 519 kts | 145° |
| 2026-05-07 00:39 | 28.89856 | 132.31719 | 35013 ft | 519 kts | 145° |
| 2026-05-07 00:40 | 28.84010 | 132.36487 | 35018 ft | 521 kts | 145° |
| 2026-05-07 00:40 | 28.78107 | 132.41295 | 35022 ft | 521 kts | 145° |
| 2026-05-07 00:41 | 28.72223 | 132.46081 | 35017 ft | 517 kts | 146° |
| 2026-05-07 00:41 | 28.66378 | 132.50828 | 35018 ft | 516 kts | 146° |
| 2026-05-07 00:42 | 28.60532 | 132.55569 | 35017 ft | 516 kts | 146° |
| 2026-05-07 00:42 | 28.54679 | 132.60309 | 35018 ft | 516 kts | 146° |
| 2026-05-07 00:43 | 28.48841 | 132.65031 | 35017 ft | 512 kts | 146° |
| 2026-05-07 00:43 | 28.43065 | 132.69697 | 35017 ft | 509 kts | 146° |
| 2026-05-07 00:44 | 28.37297 | 132.74349 | 35018 ft | 509 kts | 146° |
| 2026-05-07 00:44 | 28.31561 | 132.78972 | 35018 ft | 509 kts | 146° |
| 2026-05-07 00:45 | 28.25783 | 132.83609 | 35015 ft | 509 kts | 146° |
| 2026-05-07 00:45 | 28.19981 | 132.88257 | 35018 ft | 511 kts | 146° |
| 2026-05-07 00:46 | 28.14176 | 132.92907 | 35017 ft | 511 kts | 146° |
| 2026-05-07 00:46 | 28.08369 | 132.97552 | 35017 ft | 511 kts | 146° |
| 2026-05-07 00:47 | 28.02555 | 133.02197 | 35019 ft | 511 kts | 146° |
| 2026-05-07 00:47 | 27.96779 | 133.06807 | 35022 ft | 504 kts | 147° |
| 2026-05-07 00:48 | 27.91058 | 133.11365 | 35025 ft | 503 kts | 147° |
| 2026-05-07 00:48 | 27.85334 | 133.15928 | 35028 ft | 503 kts | 147° |
| 2026-05-07 00:49 | 27.79650 | 133.20457 | 35028 ft | 503 kts | 147° |
| 2026-05-07 00:49 | 27.73924 | 133.25013 | 35029 ft | 502 kts | 147° |
| 2026-05-07 00:50 | 27.68237 | 133.29532 | 35030 ft | 499 kts | 147° |
| 2026-05-07 00:50 | 27.62565 | 133.34037 | 35020 ft | 499 kts | 147° |
| 2026-05-07 00:51 | 27.56866 | 133.38553 | 35035 ft | 502 kts | 147° |
| 2026-05-07 00:51 | 27.51143 | 133.43082 | 35027 ft | 502 kts | 147° |
| 2026-05-07 00:52 | 27.45432 | 133.47596 | 35030 ft | 501 kts | 147° |
| 2026-05-07 00:52 | 27.39735 | 133.52096 | 35033 ft | 501 kts | 147° |
| 2026-05-07 00:53 | 27.34027 | 133.56597 | 35031 ft | 501 kts | 147° |
| 2026-05-07 00:53 | 27.28308 | 133.61102 | 35034 ft | 504 kts | 147° |
| 2026-05-07 00:54 | 27.22562 | 133.65622 | 35034 ft | 503 kts | 148° |
| 2026-05-07 00:54 | 27.16857 | 133.70105 | 35039 ft | 500 kts | 148° |
| 2026-05-07 00:55 | 27.11161 | 133.74574 | 35037 ft | 499 kts | 148° |
| 2026-05-07 00:55 | 27.05465 | 133.79037 | 35038 ft | 499 kts | 148° |
| 2026-05-07 00:56 | 26.99768 | 133.83496 | 35034 ft | 500 kts | 148° |
| 2026-05-07 00:56 | 26.94099 | 133.87926 | 35042 ft | 499 kts | 148° |
| 2026-05-07 00:57 | 26.88400 | 133.92376 | 35046 ft | 499 kts | 148° |
| 2026-05-07 00:57 | 26.82704 | 133.96817 | 35045 ft | 499 kts | 148° |
| 2026-05-07 00:58 | 26.77003 | 134.01256 | 35046 ft | 499 kts | 148° |
| 2026-05-07 00:58 | 26.71304 | 134.05694 | 35046 ft | 499 kts | 149° |
| 2026-05-07 00:59 | 26.62731 | 134.12347 | 35052 ft | 502 kts | 149° |
| 2026-05-07 01:00 | 26.56990 | 134.16792 | 35049 ft | 502 kts | 149° |
| 2026-05-07 01:00 | 26.51250 | 134.21234 | 35050 ft | 502 kts | 149° |
| 2026-05-07 01:01 | 26.45502 | 134.25676 | 35047 ft | 504 kts | 149° |
| 2026-05-07 01:01 | 26.39734 | 134.30129 | 35047 ft | 505 kts | 149° |
| 2026-05-07 01:02 | 26.33948 | 134.34592 | 35049 ft | 507 kts | 149° |
| 2026-05-07 01:02 | 26.28137 | 134.39067 | 35050 ft | 508 kts | 150° |
| 2026-05-07 01:03 | 26.22359 | 134.43513 | 35056 ft | 508 kts | 150° |
| 2026-05-07 01:03 | 26.16544 | 134.47981 | 35054 ft | 508 kts | 150° |
| 2026-05-07 01:04 | 26.10721 | 134.52449 | 35055 ft | 508 kts | 150° |
| 2026-05-07 01:04 | 26.04896 | 134.56913 | 35046 ft | 510 kts | 150° |
| 2026-05-07 01:05 | 26.00009 | 134.60652 | 35049 ft | 515 kts | 150° |
| 2026-05-07 01:05 | 25.94106 | 134.65166 | 35050 ft | 513 kts | 150° |
| 2026-05-07 01:06 | 25.88224 | 134.69660 | 35050 ft | 513 kts | 150° |
| 2026-05-07 01:06 | 25.82341 | 134.74148 | 35054 ft | 513 kts | 150° |
| 2026-05-07 01:07 | 25.76460 | 134.78628 | 35054 ft | 513 kts | 150° |
| 2026-05-07 01:07 | 25.70560 | 134.83117 | 35056 ft | 515 kts | 150° |
| 2026-05-07 01:08 | 25.64640 | 134.87615 | 35056 ft | 516 kts | 150° |
| 2026-05-07 01:08 | 25.58722 | 134.92108 | 35057 ft | 516 kts | 150° |
| 2026-05-07 01:09 | 25.52804 | 134.96596 | 35051 ft | 516 kts | 150° |
| 2026-05-07 01:09 | 25.46853 | 135.01029 | 35048 ft | 514 kts | 153° |
| 2026-05-07 01:10 | 25.40733 | 135.05023 | 35053 ft | 509 kts | 155° |
| 2026-05-07 01:10 | 25.34588 | 135.08904 | 35051 ft | 509 kts | 155° |
| 2026-05-07 01:11 | 25.28463 | 135.12842 | 35033 ft | 509 kts | 155° |
| 2026-05-07 01:11 | 25.22337 | 135.16829 | 35059 ft | 513 kts | 154° |
| 2026-05-07 01:12 | 25.16198 | 135.20837 | 35057 ft | 513 kts | 154° |
| 2026-05-07 01:12 | 25.10050 | 135.24847 | 35041 ft | 513 kts | 155° |
| 2026-05-07 01:13 | 25.03891 | 135.28854 | 35055 ft | 514 kts | 155° |
| 2026-05-07 01:13 | 24.97726 | 135.32860 | 35053 ft | 515 kts | 155° |
| 2026-05-07 01:14 | 24.91558 | 135.36863 | 35038 ft | 514 kts | 155° |
| 2026-05-07 01:14 | 24.85397 | 135.40858 | 35058 ft | 512 kts | 155° |
| 2026-05-07 01:15 | 24.79264 | 135.44830 | 35058 ft | 511 kts | 155° |
| 2026-05-07 01:15 | 24.73133 | 135.48793 | 35050 ft | 511 kts | 155° |
| 2026-05-07 01:16 | 24.67002 | 135.52753 | 35056 ft | 511 kts | 155° |
| 2026-05-07 01:16 | 24.60867 | 135.56711 | 35058 ft | 511 kts | 155° |
| 2026-05-07 01:17 | 24.54776 | 135.60637 | 35051 ft | 510 kts | 155° |
| 2026-05-07 01:17 | 24.48662 | 135.64574 | 35056 ft | 509 kts | 155° |
| 2026-05-07 01:18 | 24.42547 | 135.68506 | 35054 ft | 509 kts | 155° |
| 2026-05-07 01:18 | 24.36433 | 135.72432 | 35047 ft | 509 kts | 155° |
| 2026-05-07 01:19 | 24.30303 | 135.76364 | 35050 ft | 510 kts | 155° |
| 2026-05-07 01:19 | 24.24188 | 135.80283 | 35050 ft | 509 kts | 155° |
| 2026-05-07 01:20 | 24.18083 | 135.84191 | 35046 ft | 508 kts | 155° |
| 2026-05-07 01:20 | 24.11974 | 135.88097 | 35051 ft | 508 kts | 155° |
| 2026-05-07 01:21 | 24.05861 | 135.92002 | 35050 ft | 509 kts | 155° |
| 2026-05-07 01:21 | 23.99786 | 135.95877 | 35045 ft | 509 kts | 155° |
| 2026-05-07 01:22 | 23.93673 | 135.99773 | 35052 ft | 508 kts | 155° |
| 2026-05-07 01:22 | 23.87565 | 136.03661 | 35053 ft | 508 kts | 155° |
| 2026-05-07 01:23 | 23.81455 | 136.07546 | 35043 ft | 508 kts | 155° |
| 2026-05-07 01:23 | 23.75329 | 136.11436 | 35053 ft | 509 kts | 155° |
| 2026-05-07 01:24 | 23.69203 | 136.15323 | 35053 ft | 510 kts | 155° |
| 2026-05-07 01:24 | 23.63071 | 136.19210 | 35052 ft | 509 kts | 155° |
| 2026-05-07 01:25 | 23.56961 | 136.23079 | 35052 ft | 508 kts | 155° |
| 2026-05-07 01:25 | 23.50851 | 136.26943 | 35053 ft | 507 kts | 155° |
| 2026-05-07 01:26 | 23.44743 | 136.30801 | 35034 ft | 508 kts | 155° |
| 2026-05-07 01:26 | 23.38624 | 136.34661 | 35049 ft | 509 kts | 155° |
| 2026-05-07 01:27 | 23.32499 | 136.38522 | 35047 ft | 508 kts | 155° |
| 2026-05-07 01:27 | 23.26430 | 136.42345 | 35057 ft | 507 kts | 155° |
| 2026-05-07 01:28 | 23.20312 | 136.46192 | 35054 ft | 508 kts | 154° |
| 2026-05-07 01:28 | 23.14184 | 136.50042 | 35053 ft | 508 kts | 154° |
| 2026-05-07 01:29 | 23.08069 | 136.53881 | 35055 ft | 508 kts | 154° |
| 2026-05-07 01:29 | 23.01941 | 136.57722 | 35050 ft | 508 kts | 154° |
| 2026-05-07 01:30 | 22.95820 | 136.61557 | 35059 ft | 507 kts | 154° |
| 2026-05-07 01:30 | 22.89714 | 136.65378 | 35055 ft | 507 kts | 154° |
| 2026-05-07 01:31 | 22.83597 | 136.69200 | 35057 ft | 508 kts | 154° |
| 2026-05-07 01:31 | 22.77479 | 136.73019 | 35048 ft | 508 kts | 154° |
| 2026-05-07 01:32 | 22.71349 | 136.76843 | 35048 ft | 508 kts | 154° |
| 2026-05-07 01:32 | 22.65229 | 136.80657 | 35048 ft | 507 kts | 154° |
| 2026-05-07 01:33 | 22.59156 | 136.84437 | 35052 ft | 506 kts | 154° |
| 2026-05-07 01:33 | 22.53044 | 136.88237 | 35051 ft | 506 kts | 154° |
| 2026-05-07 01:34 | 22.46931 | 136.92032 | 35039 ft | 506 kts | 153° |
| 2026-05-07 01:34 | 22.40821 | 136.95824 | 35050 ft | 506 kts | 153° |
| 2026-05-07 01:35 | 22.34706 | 136.99614 | 35047 ft | 505 kts | 153° |
| 2026-05-07 01:35 | 22.28618 | 137.03385 | 35048 ft | 504 kts | 153° |
| 2026-05-07 01:36 | 22.22535 | 137.07147 | 35049 ft | 504 kts | 153° |
| 2026-05-07 01:36 | 22.16451 | 137.10907 | 35048 ft | 504 kts | 153° |
| 2026-05-07 01:37 | 22.10369 | 137.14661 | 35044 ft | 504 kts | 153° |
| 2026-05-07 01:37 | 22.04278 | 137.18418 | 35044 ft | 505 kts | 153° |
| 2026-05-07 01:38 | 21.98178 | 137.22176 | 35050 ft | 505 kts | 153° |
| 2026-05-07 01:38 | 21.92107 | 137.25913 | 35043 ft | 505 kts | 153° |
| 2026-05-07 01:39 | 21.86003 | 137.29666 | 35032 ft | 506 kts | 153° |
| 2026-05-07 01:39 | 21.79879 | 137.33427 | 35036 ft | 507 kts | 153° |
| 2026-05-07 01:40 | 21.73753 | 137.37186 | 35047 ft | 507 kts | 153° |
| 2026-05-07 01:40 | 21.67622 | 137.40946 | 35038 ft | 507 kts | 153° |
| 2026-05-07 01:41 | 21.61493 | 137.44700 | 35036 ft | 507 kts | 153° |
| 2026-05-07 01:41 | 21.55355 | 137.48455 | 35039 ft | 507 kts | 153° |
| 2026-05-07 01:42 | 21.49224 | 137.52202 | 35043 ft | 507 kts | 153° |
| 2026-05-07 01:42 | 21.43089 | 137.55948 | 35042 ft | 508 kts | 153° |
| 2026-05-07 01:43 | 21.36939 | 137.59700 | 35042 ft | 509 kts | 153° |
| 2026-05-07 01:43 | 21.30780 | 137.63454 | 35030 ft | 509 kts | 153° |
| 2026-05-07 01:44 | 21.24620 | 137.67205 | 35032 ft | 510 kts | 153° |
| 2026-05-07 01:44 | 21.18441 | 137.70963 | 35037 ft | 511 kts | 153° |
| 2026-05-07 01:45 | 21.12256 | 137.74722 | 35034 ft | 511 kts | 153° |
| 2026-05-07 01:45 | 21.06068 | 137.78479 | 35027 ft | 511 kts | 153° |
| 2026-05-07 01:46 | 20.99997 | 137.82449 | 35127 ft | 513 kts | 144° |
| 2026-05-07 01:46 | 20.97255 | 137.84874 | 35430 ft | 510 kts | 141° |
| 2026-05-07 01:46 | 20.94588 | 137.87368 | 35668 ft | 509 kts | 140° |
| 2026-05-07 01:46 | 20.91950 | 137.89898 | 35825 ft | 510 kts | 140° |
| 2026-05-07 01:47 | 20.89325 | 137.92451 | 35976 ft | 510 kts | 140° |
| 2026-05-07 01:47 | 20.86705 | 137.95007 | 36122 ft | 510 kts | 140° |
| 2026-05-07 01:47 | 20.84084 | 137.97564 | 36258 ft | 510 kts | 140° |
| 2026-05-07 01:47 | 20.81457 | 138.00119 | 36384 ft | 511 kts | 140° |
| 2026-05-07 01:48 | 20.78828 | 138.02670 | 36548 ft | 510 kts | 140° |
| 2026-05-07 01:48 | 20.76196 | 138.05219 | 36725 ft | 509 kts | 140° |
| 2026-05-07 01:48 | 20.73570 | 138.07758 | 36848 ft | 510 kts | 140° |
| 2026-05-07 01:48 | 20.70938 | 138.10299 | 36969 ft | 510 kts | 140° |
| 2026-05-07 01:49 | 20.68300 | 138.12845 | 37023 ft | 512 kts | 140° |
| 2026-05-07 01:49 | 20.63025 | 138.17930 | 37037 ft | 517 kts | 140° |
| 2026-05-07 01:50 | 20.57679 | 138.23083 | 37042 ft | 517 kts | 140° |
| 2026-05-07 01:50 | 20.53208 | 138.27389 | 37040 ft | 516 kts | 140° |
| 2026-05-07 01:51 | 20.47914 | 138.32482 | 37024 ft | 516 kts | 140° |
| 2026-05-07 01:51 | 20.42581 | 138.37608 | 37031 ft | 516 kts | 140° |
| 2026-05-07 01:52 | 20.37241 | 138.42735 | 37031 ft | 516 kts | 140° |
| 2026-05-07 01:52 | 20.31905 | 138.47853 | 37029 ft | 516 kts | 140° |
| 2026-05-07 01:53 | 20.26569 | 138.52967 | 37020 ft | 516 kts | 140° |
| 2026-05-07 01:53 | 20.21224 | 138.58083 | 37027 ft | 516 kts | 140° |
| 2026-05-07 01:54 | 20.15880 | 138.63195 | 37027 ft | 517 kts | 140° |
| 2026-05-07 01:54 | 20.10535 | 138.68302 | 37022 ft | 516 kts | 140° |
| 2026-05-07 01:55 | 20.05190 | 138.73405 | 37021 ft | 516 kts | 140° |
| 2026-05-07 01:55 | 19.99839 | 138.78508 | 37020 ft | 516 kts | 140° |
| 2026-05-07 01:56 | 19.94490 | 138.83605 | 37020 ft | 516 kts | 140° |
| 2026-05-07 01:56 | 19.89135 | 138.88702 | 37021 ft | 516 kts | 140° |
| 2026-05-07 01:57 | 19.83782 | 138.93792 | 37022 ft | 517 kts | 140° |
| 2026-05-07 01:57 | 19.78425 | 138.98882 | 37022 ft | 517 kts | 140° |
| 2026-05-07 01:58 | 19.73065 | 139.03970 | 37020 ft | 517 kts | 140° |
| 2026-05-07 01:58 | 19.67705 | 139.09053 | 37022 ft | 517 kts | 140° |
| 2026-05-07 01:59 | 19.62343 | 139.14133 | 37015 ft | 517 kts | 140° |
| 2026-05-07 01:59 | 19.56984 | 139.19205 | 37017 ft | 516 kts | 140° |
| 2026-05-07 02:00 | 19.51625 | 139.24274 | 37017 ft | 516 kts | 140° |
| 2026-05-07 02:00 | 19.46298 | 139.29306 | 37013 ft | 517 kts | 140° |
| 2026-05-07 02:01 | 19.40918 | 139.34384 | 37014 ft | 518 kts | 140° |
| 2026-05-07 02:01 | 19.35539 | 139.39457 | 37013 ft | 518 kts | 140° |
| 2026-05-07 02:02 | 19.30156 | 139.44529 | 37006 ft | 518 kts | 140° |
| 2026-05-07 02:02 | 19.24738 | 139.49629 | 37005 ft | 518 kts | 140° |
| 2026-05-07 02:03 | 19.19376 | 139.54671 | 37009 ft | 519 kts | 140° |
| 2026-05-07 02:03 | 19.13975 | 139.59746 | 37006 ft | 519 kts | 140° |
| 2026-05-07 02:04 | 19.08576 | 139.64814 | 37007 ft | 519 kts | 140° |
| 2026-05-07 02:04 | 19.03174 | 139.69881 | 37004 ft | 520 kts | 140° |
| 2026-05-07 02:05 | 18.97762 | 139.74951 | 37006 ft | 520 kts | 140° |
| 2026-05-07 02:05 | 18.92343 | 139.80025 | 37001 ft | 520 kts | 140° |
| 2026-05-07 02:06 | 18.86924 | 139.85094 | 37000 ft | 520 kts | 140° |
| 2026-05-07 02:06 | 18.81500 | 139.90162 | 37005 ft | 522 kts | 140° |
| 2026-05-07 02:07 | 18.76060 | 139.95241 | 36997 ft | 522 kts | 140° |
| 2026-05-07 02:07 | 18.67895 | 140.02856 | 36996 ft | 522 kts | 140° |
| 2026-05-07 02:08 | 18.62491 | 140.07890 | 36994 ft | 522 kts | 140° |
| 2026-05-07 02:08 | 18.57036 | 140.12968 | 36996 ft | 523 kts | 140° |
| 2026-05-07 02:09 | 18.51575 | 140.18045 | 36999 ft | 524 kts | 140° |
| 2026-05-07 02:09 | 18.46112 | 140.23121 | 36990 ft | 524 kts | 140° |
| 2026-05-07 02:10 | 18.40646 | 140.28195 | 36989 ft | 524 kts | 140° |
| 2026-05-07 02:10 | 18.35169 | 140.33275 | 36990 ft | 525 kts | 140° |
| 2026-05-07 02:11 | 18.29684 | 140.38357 | 36990 ft | 525 kts | 140° |
| 2026-05-07 02:11 | 18.24199 | 140.43436 | 36990 ft | 525 kts | 140° |
| 2026-05-07 02:12 | 18.18709 | 140.48514 | 36990 ft | 526 kts | 140° |
| 2026-05-07 02:12 | 18.13210 | 140.53596 | 36990 ft | 527 kts | 140° |
| 2026-05-07 02:13 | 18.07705 | 140.58679 | 36989 ft | 527 kts | 140° |
| 2026-05-07 02:13 | 18.02198 | 140.63760 | 36984 ft | 527 kts | 140° |
| 2026-05-07 02:14 | 17.96691 | 140.68837 | 36987 ft | 527 kts | 140° |
| 2026-05-07 02:14 | 17.91176 | 140.73916 | 36986 ft | 527 kts | 141° |
| 2026-05-07 02:15 | 17.85660 | 140.78992 | 36982 ft | 527 kts | 141° |
| 2026-05-07 02:15 | 17.80138 | 140.84069 | 36983 ft | 527 kts | 141° |
| 2026-05-07 02:16 | 17.74614 | 140.89144 | 36982 ft | 528 kts | 140° |
| 2026-05-07 02:16 | 17.69089 | 140.94214 | 36982 ft | 528 kts | 140° |
| 2026-05-07 02:17 | 17.63594 | 140.99254 | 36977 ft | 528 kts | 141° |
| 2026-05-07 02:17 | 17.58064 | 141.04321 | 36974 ft | 528 kts | 141° |
| 2026-05-07 02:18 | 17.52528 | 141.09389 | 36977 ft | 528 kts | 141° |
| 2026-05-07 02:18 | 17.46999 | 141.14447 | 36975 ft | 528 kts | 140° |
| 2026-05-07 02:19 | 17.41461 | 141.19509 | 36975 ft | 528 kts | 140° |
| 2026-05-07 02:19 | 17.35916 | 141.24573 | 36973 ft | 528 kts | 140° |
| 2026-05-07 02:20 | 17.30367 | 141.29636 | 36971 ft | 528 kts | 140° |
| 2026-05-07 02:20 | 17.24826 | 141.34688 | 36976 ft | 528 kts | 140° |
| 2026-05-07 02:21 | 17.19316 | 141.39707 | 36975 ft | 529 kts | 140° |
| 2026-05-07 02:21 | 17.13760 | 141.44764 | 36967 ft | 529 kts | 140° |
| 2026-05-07 02:22 | 17.08211 | 141.49811 | 36968 ft | 529 kts | 140° |
| 2026-05-07 02:22 | 17.02661 | 141.54854 | 36966 ft | 528 kts | 140° |
| 2026-05-07 02:23 | 16.97117 | 141.59889 | 36966 ft | 528 kts | 140° |
| 2026-05-07 02:23 | 16.91568 | 141.64923 | 36963 ft | 528 kts | 140° |
| 2026-05-07 02:24 | 16.86022 | 141.69950 | 36959 ft | 528 kts | 140° |
| 2026-05-07 02:24 | 16.80489 | 141.74962 | 36960 ft | 526 kts | 140° |
| 2026-05-07 02:25 | 16.74958 | 141.79968 | 36960 ft | 526 kts | 140° |
| 2026-05-07 02:25 | 16.69420 | 141.84976 | 36961 ft | 527 kts | 140° |
| 2026-05-07 02:26 | 16.63875 | 141.89986 | 36957 ft | 527 kts | 140° |
| 2026-05-07 02:26 | 16.58334 | 141.94990 | 36958 ft | 526 kts | 140° |
| 2026-05-07 02:27 | 16.52810 | 141.99999 | 36955 ft | 526 kts | 140° |
| 2026-05-07 02:27 | 16.47298 | 142.05012 | 36958 ft | 526 kts | 140° |
| 2026-05-07 02:28 | 16.41776 | 142.10029 | 36955 ft | 527 kts | 140° |
| 2026-05-07 02:28 | 16.36248 | 142.15045 | 36952 ft | 527 kts | 140° |
| 2026-05-07 02:29 | 16.30726 | 142.20049 | 36952 ft | 526 kts | 140° |
| 2026-05-07 02:29 | 16.25200 | 142.25053 | 36952 ft | 526 kts | 140° |
| 2026-05-07 02:30 | 16.19675 | 142.30052 | 36949 ft | 527 kts | 140° |
| 2026-05-07 02:30 | 16.14140 | 142.35057 | 36949 ft | 527 kts | 140° |
| 2026-05-07 02:31 | 16.08607 | 142.40056 | 36946 ft | 527 kts | 140° |
| 2026-05-07 02:31 | 16.03075 | 142.45059 | 36944 ft | 527 kts | 140° |
| 2026-05-07 02:32 | 15.97539 | 142.50050 | 36944 ft | 527 kts | 140° |
| 2026-05-07 02:32 | 15.91998 | 142.55038 | 36941 ft | 527 kts | 140° |
| 2026-05-07 02:33 | 15.86458 | 142.60025 | 36944 ft | 527 kts | 140° |
| 2026-05-07 02:33 | 15.80915 | 142.65013 | 36938 ft | 527 kts | 140° |
| 2026-05-07 02:34 | 15.75362 | 142.70006 | 36938 ft | 527 kts | 140° |
| 2026-05-07 02:34 | 15.69819 | 142.74988 | 36935 ft | 527 kts | 140° |
| 2026-05-07 02:35 | 15.65209 | 142.79127 | 36936 ft | 527 kts | 140° |
| 2026-05-07 02:35 | 15.58755 | 142.84917 | 36936 ft | 528 kts | 140° |
| 2026-05-07 02:36 | 15.54101 | 142.89090 | 36933 ft | 528 kts | 140° |
| 2026-05-07 02:36 | 15.48547 | 142.94066 | 36933 ft | 528 kts | 140° |
| 2026-05-07 02:37 | 15.43026 | 142.99010 | 36930 ft | 527 kts | 140° |
| 2026-05-07 02:37 | 15.37444 | 143.04004 | 36930 ft | 527 kts | 140° |
| 2026-05-07 02:38 | 15.31921 | 143.08941 | 36927 ft | 528 kts | 140° |
| 2026-05-07 02:38 | 15.26362 | 143.13908 | 36925 ft | 528 kts | 140° |
| 2026-05-07 02:39 | 15.20800 | 143.18873 | 36927 ft | 528 kts | 140° |
| 2026-05-07 02:39 | 15.15240 | 143.23833 | 36925 ft | 528 kts | 140° |
| 2026-05-07 02:40 | 15.09671 | 143.28797 | 36925 ft | 528 kts | 140° |
| 2026-05-07 02:40 | 15.04096 | 143.33763 | 36925 ft | 529 kts | 140° |
| 2026-05-07 02:41 | 14.98523 | 143.38724 | 36926 ft | 529 kts | 140° |
| 2026-05-07 02:41 | 14.92943 | 143.43688 | 36923 ft | 528 kts | 140° |
| 2026-05-07 02:42 | 14.87376 | 143.48636 | 36922 ft | 528 kts | 141° |
| 2026-05-07 02:42 | 14.81807 | 143.53583 | 36922 ft | 528 kts | 141° |
| 2026-05-07 02:43 | 14.76230 | 143.58534 | 36916 ft | 528 kts | 141° |
| 2026-05-07 02:43 | 14.70655 | 143.63481 | 36916 ft | 528 kts | 141° |
| 2026-05-07 02:44 | 14.65089 | 143.68403 | 36914 ft | 526 kts | 141° |
| 2026-05-07 02:44 | 14.59521 | 143.73314 | 36914 ft | 526 kts | 141° |
| 2026-05-07 02:45 | 14.53955 | 143.78223 | 36914 ft | 527 kts | 141° |
| 2026-05-07 02:45 | 14.48380 | 143.83139 | 36907 ft | 527 kts | 141° |
| 2026-05-07 02:46 | 14.42808 | 143.88049 | 36911 ft | 526 kts | 141° |
| 2026-05-07 02:46 | 14.37250 | 143.92944 | 36908 ft | 526 kts | 141° |
| 2026-05-07 02:47 | 14.31687 | 143.97840 | 36908 ft | 526 kts | 141° |
| 2026-05-07 02:47 | 14.26163 | 144.02699 | 36909 ft | 525 kts | 141° |
| 2026-05-07 02:48 | 14.20567 | 144.07617 | 36907 ft | 525 kts | 141° |
| 2026-05-07 02:48 | 14.15021 | 144.12489 | 36905 ft | 523 kts | 141° |
| 2026-05-07 02:49 | 14.09513 | 144.17323 | 36908 ft | 523 kts | 141° |
| 2026-05-07 02:49 | 14.03968 | 144.22187 | 36905 ft | 523 kts | 141° |
| 2026-05-07 02:50 | 13.98426 | 144.27045 | 36906 ft | 523 kts | 141° |
| 2026-05-07 02:50 | 13.92874 | 144.31909 | 36905 ft | 523 kts | 141° |
| 2026-05-07 02:51 | 13.87333 | 144.36760 | 36907 ft | 523 kts | 141° |
| 2026-05-07 02:51 | 13.81785 | 144.41614 | 36905 ft | 523 kts | 141° |
| 2026-05-07 02:52 | 13.76277 | 144.46430 | 36909 ft | 523 kts | 141° |
| 2026-05-07 02:52 | 13.70732 | 144.51275 | 36906 ft | 523 kts | 141° |
| 2026-05-07 02:53 | 13.65198 | 144.56107 | 36916 ft | 521 kts | 141° |
| 2026-05-07 02:53 | 13.59669 | 144.60932 | 36923 ft | 521 kts | 141° |
| 2026-05-07 02:54 | 13.54140 | 144.65754 | 36928 ft | 521 kts | 141° |
| 2026-05-07 02:54 | 13.48607 | 144.70576 | 36933 ft | 521 kts | 141° |
| 2026-05-07 02:55 | 13.43496 | 144.75847 | 36935 ft | 521 kts | 131° |
| 2026-05-07 02:55 | 13.38858 | 144.81561 | 36933 ft | 520 kts | 130° |
| 2026-05-07 02:56 | 13.34309 | 144.87327 | 36900 ft | 520 kts | 130° |
| 2026-05-07 02:56 | 13.29758 | 144.93093 | 36901 ft | 520 kts | 130° |
| 2026-05-07 02:57 | 13.25196 | 144.98845 | 36890 ft | 519 kts | 130° |
| 2026-05-07 02:57 | 13.20625 | 145.04594 | 36893 ft | 520 kts | 130° |
| 2026-05-07 02:58 | 13.16057 | 145.10334 | 36882 ft | 518 kts | 130° |
| 2026-05-07 02:58 | 13.11490 | 145.16069 | 36884 ft | 519 kts | 130° |
| 2026-05-07 02:59 | 13.06956 | 145.21766 | 36878 ft | 518 kts | 130° |
| 2026-05-07 02:59 | 13.02388 | 145.27498 | 36879 ft | 519 kts | 131° |
| 2026-05-07 03:00 | 12.97818 | 145.33221 | 36880 ft | 518 kts | 131° |
| 2026-05-07 03:00 | 12.93252 | 145.38937 | 36881 ft | 517 kts | 130° |
| 2026-05-07 03:01 | 12.88698 | 145.44638 | 36877 ft | 517 kts | 131° |
| 2026-05-07 03:01 | 12.84140 | 145.50339 | 36876 ft | 517 kts | 131° |
| 2026-05-07 03:02 | 12.79584 | 145.56036 | 36876 ft | 516 kts | 131° |
| 2026-05-07 03:02 | 12.75034 | 145.61722 | 36872 ft | 515 kts | 131° |
| 2026-05-07 03:03 | 12.70518 | 145.67360 | 36872 ft | 515 kts | 131° |
| 2026-05-07 03:03 | 12.65970 | 145.73035 | 36869 ft | 515 kts | 131° |
| 2026-05-07 03:04 | 12.61420 | 145.78710 | 36874 ft | 515 kts | 131° |
| 2026-05-07 03:04 | 12.56875 | 145.84375 | 36873 ft | 514 kts | 131° |
| 2026-05-07 03:05 | 12.52331 | 145.90035 | 36873 ft | 514 kts | 131° |
| 2026-05-07 03:05 | 12.47791 | 145.95687 | 36872 ft | 514 kts | 131° |
| 2026-05-07 03:06 | 12.43246 | 146.01342 | 36873 ft | 514 kts | 131° |
| 2026-05-07 03:06 | 12.38712 | 146.06982 | 36873 ft | 512 kts | 131° |
| 2026-05-07 03:07 | 12.34190 | 146.12606 | 36870 ft | 511 kts | 131° |
| 2026-05-07 03:07 | 12.29668 | 146.18217 | 36869 ft | 511 kts | 131° |
| 2026-05-07 03:08 | 12.25146 | 146.23826 | 36871 ft | 511 kts | 131° |
| 2026-05-07 03:08 | 12.20618 | 146.29441 | 36869 ft | 511 kts | 131° |
| 2026-05-07 03:09 | 12.16107 | 146.35034 | 36870 ft | 508 kts | 132° |
| 2026-05-07 03:09 | 12.11615 | 146.40599 | 36870 ft | 507 kts | 131° |
| 2026-05-07 03:10 | 12.07131 | 146.46150 | 36870 ft | 507 kts | 132° |
| 2026-05-07 03:10 | 12.02676 | 146.51662 | 36870 ft | 506 kts | 131° |
| 2026-05-07 03:11 | 11.98190 | 146.57210 | 36867 ft | 507 kts | 132° |
| 2026-05-07 03:11 | 11.93696 | 146.62764 | 36868 ft | 506 kts | 131° |
| 2026-05-07 03:12 | 11.89219 | 146.68296 | 36861 ft | 505 kts | 132° |
| 2026-05-07 03:12 | 11.84747 | 146.73816 | 36868 ft | 504 kts | 131° |
| 2026-05-07 03:13 | 11.80279 | 146.79330 | 36865 ft | 504 kts | 132° |
| 2026-05-07 03:13 | 11.75808 | 146.84843 | 36869 ft | 504 kts | 132° |
| 2026-05-07 03:14 | 11.71340 | 146.90351 | 36865 ft | 504 kts | 132° |
| 2026-05-07 03:15 | 11.64640 | 146.98603 | 36863 ft | 503 kts | 132° |
| 2026-05-07 03:15 | 11.60173 | 147.04100 | 36861 ft | 503 kts | 132° |
| 2026-05-07 03:16 | 11.55595 | 147.09487 | 36861 ft | 501 kts | 139° |
| 2026-05-07 03:16 | 11.50088 | 147.13748 | 36859 ft | 496 kts | 149° |
| 2026-05-07 03:17 | 11.44248 | 147.17505 | 36859 ft | 496 kts | 151° |
| 2026-05-07 03:17 | 11.38399 | 147.21153 | 36860 ft | 496 kts | 150° |
| 2026-05-07 03:18 | 11.32536 | 147.24823 | 36860 ft | 494 kts | 151° |
| 2026-05-07 03:18 | 11.26685 | 147.28508 | 36860 ft | 494 kts | 150° |
| 2026-05-07 03:19 | 11.20838 | 147.32198 | 36858 ft | 494 kts | 150° |
| 2026-05-07 03:19 | 11.14987 | 147.35889 | 36855 ft | 494 kts | 150° |
| 2026-05-07 03:20 | 11.09140 | 147.39575 | 36855 ft | 493 kts | 150° |
| 2026-05-07 03:20 | 11.03348 | 147.43225 | 36854 ft | 492 kts | 150° |
| 2026-05-07 03:21 | 10.97524 | 147.46893 | 36854 ft | 492 kts | 150° |
| 2026-05-07 03:21 | 10.91697 | 147.50559 | 36854 ft | 492 kts | 150° |
| 2026-05-07 03:22 | 10.85835 | 147.54248 | 36853 ft | 492 kts | 150° |
| 2026-05-07 03:22 | 10.80052 | 147.57885 | 36850 ft | 491 kts | 150° |
| 2026-05-07 03:23 | 10.74255 | 147.61530 | 36850 ft | 489 kts | 150° |
| 2026-05-07 03:23 | 10.68464 | 147.65168 | 36851 ft | 490 kts | 150° |
| 2026-05-07 03:24 | 10.62672 | 147.68803 | 36850 ft | 489 kts | 150° |
| 2026-05-07 03:24 | 10.57861 | 147.71823 | 36849 ft | 488 kts | 150° |
| 2026-05-07 03:25 | 10.52078 | 147.75452 | 36849 ft | 489 kts | 150° |
| 2026-05-07 03:25 | 10.46270 | 147.79096 | 36850 ft | 492 kts | 149° |
| 2026-05-07 03:26 | 10.40438 | 147.82760 | 36851 ft | 493 kts | 150° |
| 2026-05-07 03:26 | 10.34616 | 147.86422 | 36851 ft | 492 kts | 150° |
| 2026-05-07 03:27 | 10.28803 | 147.90075 | 36851 ft | 491 kts | 150° |
| 2026-05-07 03:27 | 10.22986 | 147.93729 | 36851 ft | 493 kts | 150° |
| 2026-05-07 03:28 | 10.17119 | 147.97411 | 36852 ft | 499 kts | 150° |
| 2026-05-07 03:28 | 10.11212 | 148.01118 | 36851 ft | 499 kts | 150° |
| 2026-05-07 03:29 | 10.05301 | 148.04827 | 36850 ft | 499 kts | 150° |
| 2026-05-07 03:29 | 9.99397 | 148.08528 | 36851 ft | 499 kts | 149° |
| 2026-05-07 03:30 | 9.93495 | 148.12227 | 36851 ft | 499 kts | 149° |
| 2026-05-07 03:30 | 9.87589 | 148.15927 | 36851 ft | 499 kts | 150° |
| 2026-05-07 03:31 | 9.81723 | 148.19599 | 36847 ft | 499 kts | 150° |
| 2026-05-07 03:31 | 9.75814 | 148.23298 | 36844 ft | 497 kts | 150° |
| 2026-05-07 03:32 | 9.69930 | 148.26979 | 36848 ft | 497 kts | 150° |
| 2026-05-07 03:32 | 9.64050 | 148.30657 | 36844 ft | 496 kts | 150° |
| 2026-05-07 03:33 | 9.58170 | 148.34332 | 36848 ft | 496 kts | 150° |
| 2026-05-07 03:33 | 9.52302 | 148.37997 | 36844 ft | 495 kts | 149° |
| 2026-05-07 03:34 | 9.46431 | 148.41664 | 36845 ft | 495 kts | 150° |
| 2026-05-07 03:34 | 9.40613 | 148.45298 | 36842 ft | 495 kts | 149° |
| 2026-05-07 03:35 | 9.34746 | 148.48960 | 36843 ft | 495 kts | 150° |
| 2026-05-07 03:35 | 9.28869 | 148.52625 | 36843 ft | 496 kts | 150° |
| 2026-05-07 03:36 | 9.22992 | 148.56289 | 36843 ft | 496 kts | 150° |
| 2026-05-07 03:36 | 9.17117 | 148.59951 | 36842 ft | 496 kts | 150° |
| 2026-05-07 03:37 | 9.11242 | 148.63612 | 36840 ft | 496 kts | 150° |
| 2026-05-07 03:37 | 9.05367 | 148.67271 | 36843 ft | 496 kts | 150° |
| 2026-05-07 03:38 | 8.99497 | 148.70926 | 36842 ft | 495 kts | 150° |
| 2026-05-07 03:38 | 8.93624 | 148.74581 | 36843 ft | 495 kts | 150° |
| 2026-05-07 03:39 | 8.87754 | 148.78233 | 36841 ft | 496 kts | 150° |
| 2026-05-07 03:39 | 8.81863 | 148.81896 | 36842 ft | 497 kts | 150° |
| 2026-05-07 03:40 | 8.75972 | 148.85559 | 36839 ft | 497 kts | 150° |
| 2026-05-07 03:40 | 8.70082 | 148.89219 | 36839 ft | 497 kts | 150° |
| 2026-05-07 03:41 | 8.64192 | 148.92878 | 36837 ft | 497 kts | 150° |
| 2026-05-07 03:41 | 8.58340 | 148.96511 | 36837 ft | 497 kts | 150° |
| 2026-05-07 03:42 | 8.52452 | 149.00167 | 36835 ft | 497 kts | 150° |
| 2026-05-07 03:42 | 8.46556 | 149.03825 | 36836 ft | 497 kts | 150° |
| 2026-05-07 03:43 | 8.40654 | 149.07486 | 36832 ft | 499 kts | 150° |
| 2026-05-07 03:43 | 8.34725 | 149.11161 | 36831 ft | 500 kts | 150° |
| 2026-05-07 03:44 | 8.28791 | 149.14839 | 36831 ft | 500 kts | 150° |
| 2026-05-07 03:44 | 8.22860 | 149.18515 | 36832 ft | 500 kts | 150° |
| 2026-05-07 03:45 | 8.16928 | 149.22189 | 36833 ft | 500 kts | 150° |
| 2026-05-07 03:45 | 8.10999 | 149.25859 | 36829 ft | 500 kts | 150° |
| 2026-05-07 03:46 | 8.05075 | 149.29527 | 36832 ft | 499 kts | 150° |
| 2026-05-07 03:46 | 7.99154 | 149.33191 | 36830 ft | 499 kts | 150° |
| 2026-05-07 03:47 | 7.93223 | 149.36859 | 36829 ft | 499 kts | 150° |
| 2026-05-07 03:47 | 7.87298 | 149.40522 | 36832 ft | 499 kts | 150° |
| 2026-05-07 03:48 | 7.81370 | 149.44186 | 36826 ft | 500 kts | 150° |
| 2026-05-07 03:48 | 7.75477 | 149.47827 | 36828 ft | 500 kts | 150° |
| 2026-05-07 03:49 | 7.69547 | 149.51490 | 36830 ft | 500 kts | 150° |
| 2026-05-07 03:49 | 7.63617 | 149.55152 | 36827 ft | 500 kts | 150° |
| 2026-05-07 03:50 | 7.57682 | 149.58816 | 36825 ft | 500 kts | 150° |
| 2026-05-07 03:50 | 7.51750 | 149.62475 | 36825 ft | 501 kts | 149° |
| 2026-05-07 03:51 | 7.45789 | 149.66152 | 36819 ft | 503 kts | 149° |
| 2026-05-07 03:51 | 7.39806 | 149.69842 | 36820 ft | 505 kts | 149° |
| 2026-05-07 03:52 | 7.33812 | 149.73538 | 36819 ft | 505 kts | 149° |
| 2026-05-07 03:52 | 7.27811 | 149.77236 | 36821 ft | 506 kts | 149° |
| 2026-05-07 03:53 | 7.21803 | 149.80937 | 36820 ft | 506 kts | 148° |
| 2026-05-07 03:53 | 7.15819 | 149.84623 | 36815 ft | 503 kts | 148° |
| 2026-05-07 03:54 | 7.09850 | 149.88299 | 36813 ft | 502 kts | 148° |
| 2026-05-07 03:54 | 7.03921 | 149.91948 | 36817 ft | 504 kts | 148° |
| 2026-05-07 03:55 | 6.97942 | 149.95627 | 36819 ft | 504 kts | 148° |
| 2026-05-07 03:55 | 6.91917 | 149.99332 | 36816 ft | 504 kts | 148° |
| 2026-05-07 03:56 | 6.85933 | 150.03012 | 36812 ft | 504 kts | 148° |
| 2026-05-07 03:56 | 6.79938 | 150.06698 | 36816 ft | 505 kts | 147° |
| 2026-05-07 03:57 | 6.73943 | 150.10383 | 36817 ft | 504 kts | 148° |
| 2026-05-07 03:57 | 6.67954 | 150.14063 | 36813 ft | 504 kts | 148° |
| 2026-05-07 03:58 | 6.62009 | 150.17714 | 36817 ft | 504 kts | 148° |
| 2026-05-07 03:58 | 6.56035 | 150.21382 | 36812 ft | 503 kts | 148° |
| 2026-05-07 03:59 | 6.50055 | 150.25053 | 36815 ft | 504 kts | 148° |
| 2026-05-07 03:59 | 6.44068 | 150.28728 | 36817 ft | 505 kts | 148° |
| 2026-05-07 04:00 | 6.38079 | 150.32402 | 36813 ft | 504 kts | 148° |
| 2026-05-07 04:00 | 6.32080 | 150.36081 | 36812 ft | 505 kts | 148° |
| 2026-05-07 04:01 | 6.26082 | 150.39759 | 36818 ft | 505 kts | 148° |
| 2026-05-07 04:01 | 6.20071 | 150.43444 | 36813 ft | 506 kts | 148° |
| 2026-05-07 04:02 | 6.14072 | 150.47120 | 36811 ft | 505 kts | 148° |
| 2026-05-07 04:02 | 6.08074 | 150.50796 | 36810 ft | 504 kts | 148° |
| 2026-05-07 04:03 | 6.02102 | 150.54468 | 36812 ft | 503 kts | 148° |
| 2026-05-07 04:03 | 5.96184 | 150.58123 | 36809 ft | 502 kts | 147° |
| 2026-05-07 04:04 | 5.90228 | 150.61801 | 36808 ft | 504 kts | 147° |
| 2026-05-07 04:04 | 5.84248 | 150.65491 | 36811 ft | 504 kts | 147° |
| 2026-05-07 04:05 | 5.78266 | 150.69179 | 36808 ft | 504 kts | 147° |
| 2026-05-07 04:05 | 5.72288 | 150.72864 | 36810 ft | 505 kts | 147° |
| 2026-05-07 04:06 | 5.66298 | 150.76555 | 36803 ft | 505 kts | 147° |
| 2026-05-07 04:06 | 5.60301 | 150.80250 | 36805 ft | 504 kts | 147° |
| 2026-05-07 04:07 | 5.54326 | 150.83930 | 36806 ft | 504 kts | 147° |
| 2026-05-07 04:07 | 5.48348 | 150.87613 | 36809 ft | 504 kts | 147° |
| 2026-05-07 04:08 | 5.42412 | 150.91267 | 36806 ft | 504 kts | 147° |
| 2026-05-07 04:08 | 5.36405 | 150.94965 | 36806 ft | 503 kts | 147° |
| 2026-05-07 04:09 | 5.30432 | 150.98641 | 36805 ft | 503 kts | 147° |
| 2026-05-07 04:09 | 5.24518 | 151.02279 | 36799 ft | 501 kts | 147° |
| 2026-05-07 04:10 | 5.18575 | 151.05935 | 36801 ft | 501 kts | 147° |
| 2026-05-07 04:10 | 5.12636 | 151.09587 | 36805 ft | 500 kts | 147° |
| 2026-05-07 04:11 | 5.06701 | 151.13236 | 36801 ft | 500 kts | 147° |
| 2026-05-07 04:11 | 5.01766 | 151.16270 | 36801 ft | 500 kts | 147° |
| 2026-05-07 04:12 | 4.95829 | 151.19919 | 36802 ft | 501 kts | 147° |
| 2026-05-07 04:12 | 4.89886 | 151.23571 | 36799 ft | 501 kts | 147° |
| 2026-05-07 04:13 | 4.83941 | 151.27223 | 36802 ft | 501 kts | 147° |
| 2026-05-07 04:13 | 4.77995 | 151.30876 | 36802 ft | 501 kts | 147° |
| 2026-05-07 04:14 | 4.72047 | 151.34528 | 36802 ft | 501 kts | 147° |
| 2026-05-07 04:14 | 4.66116 | 151.38169 | 36799 ft | 499 kts | 146° |
| 2026-05-07 04:15 | 4.60200 | 151.41801 | 36799 ft | 499 kts | 146° |
| 2026-05-07 04:15 | 4.54282 | 151.45433 | 36799 ft | 499 kts | 146° |
| 2026-05-07 04:16 | 4.48365 | 151.49064 | 36800 ft | 499 kts | 146° |
| 2026-05-07 04:16 | 4.42445 | 151.52696 | 36800 ft | 499 kts | 146° |
| 2026-05-07 04:17 | 4.36526 | 151.56327 | 36798 ft | 499 kts | 146° |
| 2026-05-07 04:17 | 4.30610 | 151.59955 | 36795 ft | 498 kts | 146° |
| 2026-05-07 04:18 | 4.24692 | 151.63583 | 36802 ft | 498 kts | 147° |
| 2026-05-07 04:18 | 4.18787 | 151.67203 | 36800 ft | 497 kts | 147° |
| 2026-05-07 04:19 | 4.12890 | 151.70817 | 36794 ft | 497 kts | 147° |
| 2026-05-07 04:19 | 4.07028 | 151.74410 | 36793 ft | 497 kts | 147° |
| 2026-05-07 04:20 | 4.01133 | 151.78021 | 36794 ft | 497 kts | 146° |
| 2026-05-07 04:20 | 3.95216 | 151.81646 | 36793 ft | 499 kts | 146° |
| 2026-05-07 04:21 | 3.86324 | 151.87093 | 36793 ft | 499 kts | 146° |
| 2026-05-07 04:21 | 3.80398 | 151.90722 | 36793 ft | 499 kts | 146° |
| 2026-05-07 04:22 | 3.74472 | 151.94350 | 36791 ft | 499 kts | 146° |
| 2026-05-07 04:22 | 3.68554 | 151.97972 | 36794 ft | 498 kts | 146° |
| 2026-05-07 04:23 | 3.62632 | 152.01597 | 36790 ft | 498 kts | 146° |
| 2026-05-07 04:23 | 3.56720 | 152.05214 | 36790 ft | 498 kts | 146° |
| 2026-05-07 04:24 | 3.50806 | 152.08833 | 36790 ft | 498 kts | 146° |
| 2026-05-07 04:24 | 3.44895 | 152.12449 | 36790 ft | 498 kts | 146° |
| 2026-05-07 04:25 | 3.38985 | 152.16065 | 36794 ft | 498 kts | 146° |
| 2026-05-07 04:25 | 3.33099 | 152.19665 | 36793 ft | 500 kts | 147° |
| 2026-05-07 04:26 | 3.27109 | 152.23328 | 36791 ft | 502 kts | 147° |
| 2026-05-07 04:26 | 3.21152 | 152.26970 | 36791 ft | 502 kts | 147° |
| 2026-05-07 04:27 | 3.15193 | 152.30612 | 36787 ft | 502 kts | 147° |
| 2026-05-07 04:27 | 3.09279 | 152.34227 | 36791 ft | 502 kts | 147° |
| 2026-05-07 04:28 | 3.03323 | 152.37867 | 36790 ft | 502 kts | 147° |
| 2026-05-07 04:28 | 2.97363 | 152.41509 | 36791 ft | 502 kts | 147° |
| 2026-05-07 04:29 | 2.91399 | 152.45154 | 36794 ft | 502 kts | 147° |
| 2026-05-07 04:29 | 2.85432 | 152.48799 | 36791 ft | 502 kts | 147° |
| 2026-05-07 04:30 | 2.79469 | 152.52442 | 36789 ft | 502 kts | 147° |
| 2026-05-07 04:30 | 2.73507 | 152.56083 | 36793 ft | 502 kts | 147° |
| 2026-05-07 04:31 | 2.67547 | 152.59723 | 36788 ft | 501 kts | 147° |
| 2026-05-07 04:31 | 2.61600 | 152.63354 | 36788 ft | 501 kts | 147° |
| 2026-05-07 04:32 | 2.55658 | 152.66982 | 36788 ft | 500 kts | 147° |
| 2026-05-07 04:32 | 2.49715 | 152.70611 | 36789 ft | 500 kts | 147° |
| 2026-05-07 04:33 | 2.43769 | 152.74241 | 36787 ft | 500 kts | 147° |
| 2026-05-07 04:33 | 2.37863 | 152.77845 | 36791 ft | 500 kts | 147° |
| 2026-05-07 04:34 | 2.31878 | 152.81498 | 36790 ft | 501 kts | 147° |
| 2026-05-07 04:34 | 2.25927 | 152.85130 | 36790 ft | 500 kts | 147° |
| 2026-05-07 04:35 | 2.19989 | 152.88753 | 36790 ft | 500 kts | 147° |
| 2026-05-07 04:35 | 2.14055 | 152.92373 | 36791 ft | 500 kts | 147° |
| 2026-05-07 04:36 | 2.08116 | 152.95997 | 36791 ft | 500 kts | 147° |
| 2026-05-07 04:36 | 2.02221 | 152.99593 | 36791 ft | 500 kts | 147° |
| 2026-05-07 04:37 | 1.96290 | 153.03211 | 36790 ft | 499 kts | 147° |
| 2026-05-07 04:37 | 1.90362 | 153.06826 | 36789 ft | 499 kts | 147° |
| 2026-05-07 04:38 | 1.84437 | 153.10440 | 36788 ft | 499 kts | 147° |
| 2026-05-07 04:38 | 1.78508 | 153.14055 | 36787 ft | 499 kts | 147° |
| 2026-05-07 04:39 | 1.72579 | 153.17671 | 36791 ft | 500 kts | 147° |
| 2026-05-07 04:39 | 1.66646 | 153.21288 | 36790 ft | 499 kts | 146° |
| 2026-05-07 04:40 | 1.60718 | 153.24903 | 36790 ft | 499 kts | 146° |
| 2026-05-07 04:40 | 1.54790 | 153.28516 | 36790 ft | 499 kts | 146° |
| 2026-05-07 04:41 | 1.48864 | 153.32129 | 36790 ft | 499 kts | 146° |
| 2026-05-07 04:41 | 1.42937 | 153.35742 | 36791 ft | 499 kts | 146° |
| 2026-05-07 04:42 | 1.37010 | 153.39355 | 36790 ft | 499 kts | 146° |
| 2026-05-07 04:42 | 1.31098 | 153.42957 | 36789 ft | 497 kts | 146° |
| 2026-05-07 04:43 | 1.25205 | 153.46549 | 36788 ft | 496 kts | 146° |
| 2026-05-07 04:43 | 1.19316 | 153.50138 | 36788 ft | 496 kts | 146° |
| 2026-05-07 04:44 | 1.13424 | 153.53729 | 36791 ft | 496 kts | 146° |
| 2026-05-07 04:44 | 1.07530 | 153.57321 | 36793 ft | 496 kts | 146° |
| 2026-05-07 04:45 | 1.01640 | 153.60910 | 36790 ft | 496 kts | 146° |
| 2026-05-07 04:45 | 0.95756 | 153.64495 | 36791 ft | 495 kts | 146° |
| 2026-05-07 04:46 | 0.89878 | 153.68076 | 36793 ft | 495 kts | 146° |
| 2026-05-07 04:46 | 0.83999 | 153.71658 | 36791 ft | 495 kts | 146° |
| 2026-05-07 04:47 | 0.78160 | 153.75215 | 36794 ft | 495 kts | 146° |
| 2026-05-07 04:47 | 0.72249 | 153.78816 | 36791 ft | 494 kts | 146° |
| 2026-05-07 04:48 | 0.66421 | 153.82368 | 36786 ft | 494 kts | 147° |
| 2026-05-07 04:48 | 0.60538 | 153.85952 | 36788 ft | 496 kts | 147° |
| 2026-05-07 04:49 | 0.54639 | 153.89545 | 36793 ft | 496 kts | 147° |
| 2026-05-07 04:49 | 0.48744 | 153.93135 | 36793 ft | 496 kts | 147° |
| 2026-05-07 04:50 | 0.42852 | 153.96724 | 36790 ft | 496 kts | 147° |
| 2026-05-07 04:50 | 0.36959 | 154.00314 | 36794 ft | 496 kts | 147° |
| 2026-05-07 04:51 | 0.31066 | 154.03904 | 36794 ft | 496 kts | 147° |
| 2026-05-07 04:51 | 0.25176 | 154.07492 | 36792 ft | 496 kts | 147° |
| 2026-05-07 04:52 | 0.19282 | 154.11082 | 36794 ft | 496 kts | 147° |
| 2026-05-07 04:52 | 0.13387 | 154.14672 | 36793 ft | 496 kts | 147° |
| 2026-05-07 04:53 | 0.07494 | 154.18262 | 36793 ft | 496 kts | 147° |
| 2026-05-07 04:53 | 0.01602 | 154.21851 | 36793 ft | 496 kts | 147° |
| 2026-05-07 04:54 | -0.04322 | 154.25460 | 36870 ft | 500 kts | 148° |
| 2026-05-07 04:54 | -0.07292 | 154.27261 | 37120 ft | 498 kts | 148° |
| 2026-05-07 04:54 | -0.09249 | 154.28446 | 37276 ft | 497 kts | 148° |
| 2026-05-07 04:55 | -0.12205 | 154.30236 | 37480 ft | 497 kts | 148° |
| 2026-05-07 04:55 | -0.16117 | 154.32606 | 37712 ft | 496 kts | 147° |
| 2026-05-07 04:55 | -0.18108 | 154.33812 | 37824 ft | 496 kts | 147° |
| 2026-05-07 04:55 | -0.21057 | 154.35601 | 37988 ft | 496 kts | 147° |
| 2026-05-07 04:56 | -0.24001 | 154.37387 | 38225 ft | 493 kts | 148° |
| 2026-05-07 04:56 | -0.27878 | 154.39739 | 38518 ft | 491 kts | 148° |
| 2026-05-07 04:56 | -0.32767 | 154.42706 | 38695 ft | 491 kts | 148° |
| 2026-05-07 04:57 | -0.38622 | 154.46258 | 38790 ft | 494 kts | 147° |
| 2026-05-07 04:57 | -0.44511 | 154.49832 | 38792 ft | 495 kts | 147° |
| 2026-05-07 04:58 | -0.50396 | 154.53402 | 38793 ft | 495 kts | 147° |
| 2026-05-07 04:58 | -0.56246 | 154.56952 | 38793 ft | 494 kts | 147° |
| 2026-05-07 04:59 | -0.62130 | 154.60522 | 38794 ft | 495 kts | 147° |
| 2026-05-07 04:59 | -0.68009 | 154.64089 | 38793 ft | 495 kts | 147° |
| 2026-05-07 05:00 | -0.73881 | 154.67652 | 38794 ft | 492 kts | 147° |
| 2026-05-07 05:00 | -0.79752 | 154.71215 | 38797 ft | 494 kts | 147° |
| 2026-05-07 05:01 | -0.85631 | 154.74783 | 38796 ft | 494 kts | 147° |
| 2026-05-07 05:01 | -0.91512 | 154.78352 | 38792 ft | 494 kts | 147° |
| 2026-05-07 05:02 | -0.97390 | 154.81919 | 38793 ft | 494 kts | 147° |
| 2026-05-07 05:02 | -1.03265 | 154.85485 | 38792 ft | 494 kts | 147° |
| 2026-05-07 05:03 | -1.09131 | 154.89045 | 38794 ft | 492 kts | 147° |
| 2026-05-07 05:03 | -1.14972 | 154.92590 | 38792 ft | 491 kts | 147° |
| 2026-05-07 05:04 | -1.20769 | 154.96109 | 38793 ft | 491 kts | 147° |
| 2026-05-07 05:04 | -1.26605 | 154.99652 | 38791 ft | 491 kts | 147° |
| 2026-05-07 05:05 | -1.32452 | 155.03202 | 38794 ft | 492 kts | 147° |
| 2026-05-07 05:05 | -1.38298 | 155.06750 | 38792 ft | 492 kts | 147° |
| 2026-05-07 05:06 | -1.44156 | 155.10308 | 38793 ft | 493 kts | 147° |
| 2026-05-07 05:06 | -1.50029 | 155.13874 | 38794 ft | 494 kts | 147° |
| 2026-05-07 05:07 | -1.55904 | 155.17440 | 38795 ft | 494 kts | 147° |
| 2026-05-07 05:07 | -1.61780 | 155.21008 | 38796 ft | 494 kts | 147° |
| 2026-05-07 05:08 | -1.67655 | 155.24577 | 38795 ft | 494 kts | 147° |
| 2026-05-07 05:08 | -1.73532 | 155.28146 | 38800 ft | 494 kts | 147° |
| 2026-05-07 05:09 | -1.79400 | 155.31711 | 38795 ft | 493 kts | 148° |
| 2026-05-07 05:09 | -1.85251 | 155.35264 | 38798 ft | 492 kts | 148° |
| 2026-05-07 05:10 | -1.91106 | 155.38821 | 38795 ft | 492 kts | 148° |
| 2026-05-07 05:10 | -1.96920 | 155.42353 | 38797 ft | 492 kts | 148° |
| 2026-05-07 05:11 | -2.02777 | 155.45912 | 38797 ft | 492 kts | 148° |
| 2026-05-07 05:11 | -2.08630 | 155.49469 | 38796 ft | 492 kts | 148° |
| 2026-05-07 05:12 | -2.14490 | 155.53029 | 38796 ft | 493 kts | 147° |
| 2026-05-07 05:12 | -2.20348 | 155.56589 | 38796 ft | 493 kts | 147° |
| 2026-05-07 05:13 | -2.26202 | 155.60147 | 38792 ft | 493 kts | 147° |
| 2026-05-07 05:13 | -2.32065 | 155.63710 | 38794 ft | 493 kts | 147° |
| 2026-05-07 05:14 | -2.37932 | 155.67277 | 38795 ft | 493 kts | 147° |
| 2026-05-07 05:14 | -2.43799 | 155.70844 | 38795 ft | 493 kts | 147° |
| 2026-05-07 05:15 | -2.49677 | 155.74418 | 38793 ft | 496 kts | 147° |
| 2026-05-07 05:15 | -2.55534 | 155.77980 | 38794 ft | 496 kts | 147° |
| 2026-05-07 05:16 | -2.61432 | 155.81567 | 38789 ft | 496 kts | 147° |
| 2026-05-07 05:16 | -2.67332 | 155.85155 | 38791 ft | 496 kts | 147° |
| 2026-05-07 05:17 | -2.73229 | 155.88742 | 38790 ft | 496 kts | 147° |
| 2026-05-07 05:17 | -2.79129 | 155.92332 | 38789 ft | 496 kts | 147° |
| 2026-05-07 05:18 | -2.85031 | 155.95923 | 38790 ft | 496 kts | 147° |
| 2026-05-07 05:18 | -2.90931 | 155.99513 | 38791 ft | 496 kts | 147° |
| 2026-05-07 05:19 | -2.96835 | 156.03106 | 38790 ft | 496 kts | 147° |
| 2026-05-07 05:19 | -3.02739 | 156.06700 | 38791 ft | 496 kts | 147° |
| 2026-05-07 05:20 | -3.08638 | 156.10291 | 38793 ft | 496 kts | 147° |
| 2026-05-07 05:20 | -3.14537 | 156.13882 | 38790 ft | 496 kts | 147° |
| 2026-05-07 05:21 | -3.23353 | 156.19251 | 38791 ft | 496 kts | 147° |
| 2026-05-07 05:22 | -3.29253 | 156.22844 | 38789 ft | 496 kts | 147° |
| 2026-05-07 05:22 | -3.35153 | 156.26438 | 38791 ft | 496 kts | 147° |
| 2026-05-07 05:23 | -3.41054 | 156.30033 | 38787 ft | 496 kts | 147° |
| 2026-05-07 05:23 | -3.46953 | 156.33627 | 38787 ft | 496 kts | 147° |
| 2026-05-07 05:24 | -3.52849 | 156.37221 | 38791 ft | 495 kts | 148° |
| 2026-05-07 05:24 | -3.58725 | 156.40802 | 38792 ft | 494 kts | 148° |
| 2026-05-07 05:25 | -3.64598 | 156.44382 | 38794 ft | 494 kts | 148° |
| 2026-05-07 05:25 | -3.70466 | 156.47959 | 38792 ft | 494 kts | 148° |
| 2026-05-07 05:26 | -3.76337 | 156.51539 | 38794 ft | 494 kts | 148° |
| 2026-05-07 05:26 | -3.82174 | 156.55099 | 38795 ft | 494 kts | 148° |
| 2026-05-07 05:27 | -3.88047 | 156.58681 | 38795 ft | 494 kts | 148° |
| 2026-05-07 05:27 | -3.93908 | 156.62257 | 38795 ft | 494 kts | 148° |
| 2026-05-07 05:28 | -3.99779 | 156.65839 | 38797 ft | 494 kts | 148° |
| 2026-05-07 05:28 | -4.05642 | 156.69417 | 38795 ft | 494 kts | 148° |
| 2026-05-07 05:29 | -4.11508 | 156.72997 | 38792 ft | 494 kts | 148° |
| 2026-05-07 05:29 | -4.17371 | 156.76576 | 38792 ft | 493 kts | 148° |
| 2026-05-07 05:30 | -4.23235 | 156.80157 | 38793 ft | 493 kts | 148° |
| 2026-05-07 05:30 | -4.29089 | 156.83731 | 38792 ft | 492 kts | 147° |
| 2026-05-07 05:31 | -4.34901 | 156.87282 | 38801 ft | 492 kts | 148° |
| 2026-05-07 05:31 | -4.40745 | 156.90852 | 38800 ft | 492 kts | 147° |
| 2026-05-07 05:32 | -4.46592 | 156.94425 | 38795 ft | 492 kts | 147° |
| 2026-05-07 05:32 | -4.52435 | 156.97996 | 38796 ft | 492 kts | 147° |
| 2026-05-07 05:33 | -4.58279 | 157.01568 | 38797 ft | 492 kts | 147° |
| 2026-05-07 05:33 | -4.64126 | 157.05143 | 38797 ft | 492 kts | 147° |
| 2026-05-07 05:34 | -4.69966 | 157.08714 | 38799 ft | 492 kts | 147° |
| 2026-05-07 05:34 | -4.75807 | 157.12286 | 38798 ft | 492 kts | 147° |
| 2026-05-07 05:35 | -4.81652 | 157.15862 | 38800 ft | 492 kts | 147° |
| 2026-05-07 05:35 | -4.87491 | 157.19435 | 38800 ft | 492 kts | 147° |
| 2026-05-07 05:36 | -4.93295 | 157.22987 | 38797 ft | 492 kts | 147° |
| 2026-05-07 05:36 | -4.99156 | 157.26574 | 38799 ft | 494 kts | 147° |
| 2026-05-07 05:37 | -5.05025 | 157.30168 | 38801 ft | 495 kts | 147° |
| 2026-05-07 05:37 | -5.10900 | 157.33765 | 38799 ft | 494 kts | 147° |
| 2026-05-07 05:38 | -5.16772 | 157.37362 | 38796 ft | 494 kts | 147° |
| 2026-05-07 05:38 | -5.22642 | 157.40958 | 38798 ft | 494 kts | 147° |
| 2026-05-07 05:39 | -5.28515 | 157.44557 | 38798 ft | 494 kts | 147° |
| 2026-05-07 05:39 | -5.34393 | 157.48160 | 38802 ft | 495 kts | 147° |
| 2026-05-07 05:40 | -5.40269 | 157.51763 | 38798 ft | 495 kts | 147° |
| 2026-05-07 05:40 | -5.46150 | 157.55369 | 38799 ft | 495 kts | 147° |
| 2026-05-07 05:41 | -5.52043 | 157.58984 | 38796 ft | 496 kts | 147° |
| 2026-05-07 05:41 | -5.57936 | 157.62599 | 38797 ft | 496 kts | 147° |
| 2026-05-07 05:42 | -5.63826 | 157.66218 | 38794 ft | 496 kts | 147° |
| 2026-05-07 05:42 | -5.69704 | 157.69858 | 38809 ft | 497 kts | 147° |
| 2026-05-07 05:43 | -5.75546 | 157.73485 | 38798 ft | 497 kts | 147° |
| 2026-05-07 05:43 | -5.81427 | 157.77133 | 38794 ft | 497 kts | 147° |
| 2026-05-07 05:44 | -5.87311 | 157.80782 | 38812 ft | 497 kts | 147° |
| 2026-05-07 05:44 | -5.93198 | 157.84433 | 38797 ft | 497 kts | 147° |
| 2026-05-07 05:45 | -5.98084 | 157.87464 | 38798 ft | 497 kts | 147° |
| 2026-05-07 05:45 | -6.03971 | 157.91118 | 38795 ft | 498 kts | 147° |
| 2026-05-07 05:46 | -6.09865 | 157.94776 | 38797 ft | 498 kts | 147° |
| 2026-05-07 05:46 | -6.15755 | 157.98432 | 38796 ft | 498 kts | 147° |
| 2026-05-07 05:47 | -6.21652 | 158.02094 | 38794 ft | 498 kts | 147° |
| 2026-05-07 05:47 | -6.27555 | 158.05762 | 38794 ft | 498 kts | 147° |
| 2026-05-07 05:48 | -6.33408 | 158.09399 | 38795 ft | 498 kts | 147° |
| 2026-05-07 05:48 | -6.39300 | 158.13061 | 38807 ft | 498 kts | 147° |
| 2026-05-07 05:49 | -6.45202 | 158.16730 | 38794 ft | 499 kts | 147° |
| 2026-05-07 05:49 | -6.51112 | 158.20405 | 38805 ft | 500 kts | 147° |
| 2026-05-07 05:50 | -6.57020 | 158.24080 | 38797 ft | 498 kts | 147° |
| 2026-05-07 05:50 | -6.62907 | 158.27743 | 38797 ft | 497 kts | 147° |
| 2026-05-07 05:51 | -6.68804 | 158.31413 | 38815 ft | 498 kts | 147° |
| 2026-05-07 05:51 | -6.74698 | 158.35083 | 38816 ft | 498 kts | 147° |
| 2026-05-07 05:52 | -6.80595 | 158.38755 | 38799 ft | 498 kts | 147° |
| 2026-05-07 05:52 | -6.86481 | 158.42422 | 38816 ft | 497 kts | 147° |
| 2026-05-07 05:53 | -6.92374 | 158.46094 | 38796 ft | 498 kts | 147° |
| 2026-05-07 05:53 | -6.98269 | 158.49769 | 38796 ft | 499 kts | 147° |
| 2026-05-07 05:54 | -7.04163 | 158.53444 | 38800 ft | 498 kts | 147° |
| 2026-05-07 05:54 | -7.10048 | 158.57114 | 38791 ft | 498 kts | 147° |
| 2026-05-07 05:55 | -7.15919 | 158.60777 | 38807 ft | 500 kts | 147° |
| 2026-05-07 05:55 | -7.21844 | 158.64474 | 38795 ft | 500 kts | 147° |
| 2026-05-07 05:56 | -7.27756 | 158.68165 | 38809 ft | 499 kts | 148° |
| 2026-05-07 05:56 | -7.33672 | 158.71858 | 38808 ft | 500 kts | 147° |
| 2026-05-07 05:57 | -7.39584 | 158.75551 | 38814 ft | 501 kts | 148° |
| 2026-05-07 05:57 | -7.45502 | 158.79250 | 38809 ft | 500 kts | 148° |
| 2026-05-07 05:58 | -7.51391 | 158.82931 | 38809 ft | 496 kts | 148° |
| 2026-05-07 05:58 | -7.57263 | 158.86602 | 38809 ft | 497 kts | 148° |
| 2026-05-07 05:59 | -7.63155 | 158.90287 | 38808 ft | 499 kts | 148° |
| 2026-05-07 05:59 | -7.69048 | 158.93975 | 38798 ft | 498 kts | 148° |
| 2026-05-07 06:00 | -7.74935 | 158.97659 | 38815 ft | 498 kts | 148° |
| 2026-05-07 06:00 | -7.80831 | 159.01350 | 38816 ft | 499 kts | 148° |
| 2026-05-07 06:01 | -7.86718 | 159.05037 | 38812 ft | 497 kts | 148° |
| 2026-05-07 06:01 | -7.92588 | 159.08715 | 38813 ft | 496 kts | 148° |
| 2026-05-07 06:02 | -7.98408 | 159.12363 | 38814 ft | 496 kts | 148° |
| 2026-05-07 06:02 | -8.04272 | 159.16042 | 38814 ft | 497 kts | 148° |
| 2026-05-07 06:03 | -8.10143 | 159.19723 | 38800 ft | 496 kts | 148° |
| 2026-05-07 06:03 | -8.16020 | 159.23406 | 38819 ft | 497 kts | 148° |
| 2026-05-07 06:04 | -8.21893 | 159.27090 | 38807 ft | 497 kts | 149° |
| 2026-05-07 06:04 | -8.27768 | 159.30778 | 38821 ft | 497 kts | 149° |
| 2026-05-07 06:05 | -8.33637 | 159.34463 | 38819 ft | 496 kts | 148° |
| 2026-05-07 06:05 | -8.39505 | 159.38148 | 38816 ft | 497 kts | 148° |
| 2026-05-07 06:06 | -8.45375 | 159.41837 | 38818 ft | 497 kts | 149° |
| 2026-05-07 06:06 | -8.51244 | 159.45526 | 38807 ft | 496 kts | 148° |
| 2026-05-07 06:07 | -8.57107 | 159.49214 | 38815 ft | 497 kts | 148° |
| 2026-05-07 06:07 | -8.62943 | 159.52893 | 38816 ft | 497 kts | 149° |
| 2026-05-07 06:08 | -8.68819 | 159.56588 | 38807 ft | 497 kts | 149° |
| 2026-05-07 06:08 | -8.74689 | 159.60280 | 38820 ft | 497 kts | 149° |
| 2026-05-07 06:09 | -8.80561 | 159.63977 | 38808 ft | 498 kts | 149° |
| 2026-05-07 06:09 | -8.86440 | 159.67681 | 38820 ft | 497 kts | 148° |
| 2026-05-07 06:10 | -8.92311 | 159.71382 | 38817 ft | 497 kts | 149° |
| 2026-05-07 06:10 | -8.98182 | 159.75085 | 38806 ft | 497 kts | 149° |
| 2026-05-07 06:11 | -9.04060 | 159.78793 | 38805 ft | 498 kts | 149° |
| 2026-05-07 06:11 | -9.09927 | 159.82496 | 38820 ft | 497 kts | 149° |
| 2026-05-07 06:12 | -9.15797 | 159.86202 | 38811 ft | 497 kts | 149° |
| 2026-05-07 06:12 | -9.21669 | 159.89911 | 38785 ft | 497 kts | 149° |
| 2026-05-07 06:13 | -9.27533 | 159.93616 | 38811 ft | 496 kts | 149° |
| 2026-05-07 06:13 | -9.33387 | 159.97317 | 38809 ft | 496 kts | 149° |
| 2026-05-07 06:14 | -9.39257 | 160.01028 | 38793 ft | 497 kts | 149° |
| 2026-05-07 06:14 | -9.45255 | 160.04477 | 38799 ft | 495 kts | 155° |
| 2026-05-07 06:15 | -9.51446 | 160.07429 | 38807 ft | 495 kts | 157° |
| 2026-05-07 06:15 | -9.57756 | 160.10338 | 38814 ft | 495 kts | 156° |
| 2026-05-07 06:16 | -9.63987 | 160.13207 | 38815 ft | 495 kts | 157° |
| 2026-05-07 06:16 | -9.70260 | 160.16106 | 38837 ft | 495 kts | 156° |
| 2026-05-07 06:17 | -9.76528 | 160.19012 | 38836 ft | 496 kts | 157° |
| 2026-05-07 06:17 | -9.82798 | 160.21920 | 38844 ft | 495 kts | 157° |
| 2026-05-07 06:18 | -9.89059 | 160.24826 | 38843 ft | 495 kts | 157° |
| 2026-05-07 06:18 | -9.95324 | 160.27734 | 38856 ft | 494 kts | 156° |
| 2026-05-07 06:19 | -10.01582 | 160.30641 | 38839 ft | 496 kts | 157° |
| 2026-05-07 06:19 | -10.07864 | 160.33559 | 38840 ft | 496 kts | 157° |
| 2026-05-07 06:20 | -10.14137 | 160.36474 | 38837 ft | 496 kts | 157° |
| 2026-05-07 06:20 | -10.20375 | 160.39375 | 38837 ft | 496 kts | 156° |
| 2026-05-07 06:21 | -10.26654 | 160.42296 | 38832 ft | 496 kts | 157° |
| 2026-05-07 06:21 | -10.32937 | 160.45220 | 38835 ft | 496 kts | 157° |
| 2026-05-07 06:22 | -10.39205 | 160.48148 | 38831 ft | 496 kts | 157° |
| 2026-05-07 06:22 | -10.48625 | 160.52534 | 38829 ft | 496 kts | 157° |
| 2026-05-07 06:23 | -10.54898 | 160.55457 | 38837 ft | 496 kts | 157° |
| 2026-05-07 06:23 | -10.61170 | 160.58383 | 38837 ft | 496 kts | 157° |
| 2026-05-07 06:24 | -10.67437 | 160.61309 | 38843 ft | 496 kts | 157° |
| 2026-05-07 06:24 | -10.73718 | 160.64244 | 38840 ft | 497 kts | 157° |
| 2026-05-07 06:25 | -10.80008 | 160.67183 | 38838 ft | 498 kts | 157° |
| 2026-05-07 06:25 | -10.86299 | 160.70124 | 38837 ft | 497 kts | 157° |
| 2026-05-07 06:26 | -10.92595 | 160.73069 | 38838 ft | 498 kts | 157° |
| 2026-05-07 06:26 | -10.98882 | 160.76020 | 38838 ft | 498 kts | 157° |
| 2026-05-07 06:27 | -11.05169 | 160.78972 | 38839 ft | 498 kts | 157° |
| 2026-05-07 06:27 | -11.11457 | 160.81923 | 38842 ft | 498 kts | 157° |
| 2026-05-07 06:28 | -11.17708 | 160.84861 | 38842 ft | 498 kts | 157° |
| 2026-05-07 06:28 | -11.24005 | 160.87822 | 38842 ft | 498 kts | 157° |
| 2026-05-07 06:29 | -11.30293 | 160.90781 | 38843 ft | 497 kts | 157° |
| 2026-05-07 06:29 | -11.36577 | 160.93740 | 38840 ft | 497 kts | 157° |
| 2026-05-07 06:30 | -11.42856 | 160.96696 | 38850 ft | 497 kts | 157° |
| 2026-05-07 06:30 | -11.49141 | 160.99658 | 38850 ft | 498 kts | 157° |
| 2026-05-07 06:31 | -11.55425 | 161.02620 | 38848 ft | 498 kts | 156° |
| 2026-05-07 06:31 | -11.60646 | 161.05083 | 38849 ft | 498 kts | 157° |
| 2026-05-07 06:32 | -11.66930 | 161.08049 | 38850 ft | 498 kts | 157° |
| 2026-05-07 06:32 | -11.73219 | 161.11018 | 38850 ft | 498 kts | 157° |
| 2026-05-07 06:33 | -11.79509 | 161.13989 | 38853 ft | 498 kts | 156° |
| 2026-05-07 06:33 | -11.85800 | 161.16962 | 38855 ft | 499 kts | 156° |
| 2026-05-07 06:34 | -11.92098 | 161.19940 | 38852 ft | 499 kts | 156° |
| 2026-05-07 06:34 | -11.98393 | 161.22918 | 38856 ft | 499 kts | 156° |
| 2026-05-07 06:35 | -12.04680 | 161.25894 | 38853 ft | 498 kts | 156° |
| 2026-05-07 06:35 | -12.10969 | 161.28872 | 38853 ft | 498 kts | 156° |
| 2026-05-07 06:36 | -12.17253 | 161.31850 | 38854 ft | 498 kts | 157° |
| 2026-05-07 06:36 | -12.23545 | 161.34832 | 38854 ft | 499 kts | 157° |
| 2026-05-07 06:37 | -12.29841 | 161.37819 | 38859 ft | 499 kts | 157° |
| 2026-05-07 06:37 | -12.36130 | 161.40803 | 38860 ft | 499 kts | 157° |
| 2026-05-07 06:38 | -12.42421 | 161.43790 | 38859 ft | 498 kts | 157° |
| 2026-05-07 06:38 | -12.48712 | 161.46779 | 38861 ft | 499 kts | 157° |
| 2026-05-07 06:39 | -12.55010 | 161.49773 | 38863 ft | 499 kts | 157° |
| 2026-05-07 06:39 | -12.61312 | 161.52770 | 38862 ft | 499 kts | 157° |
| 2026-05-07 06:40 | -12.67615 | 161.55769 | 38862 ft | 500 kts | 157° |
| 2026-05-07 06:40 | -12.73917 | 161.58770 | 38862 ft | 499 kts | 157° |
| 2026-05-07 06:41 | -12.80203 | 161.61764 | 38861 ft | 498 kts | 157° |
| 2026-05-07 06:41 | -12.86482 | 161.64758 | 38868 ft | 498 kts | 157° |
| 2026-05-07 06:42 | -12.92771 | 161.67756 | 38865 ft | 499 kts | 157° |
| 2026-05-07 06:42 | -12.99022 | 161.70738 | 38865 ft | 499 kts | 157° |
| 2026-05-07 06:43 | -13.05315 | 161.73744 | 38865 ft | 499 kts | 157° |
| 2026-05-07 06:43 | -13.11643 | 161.76767 | 38865 ft | 499 kts | 157° |
| 2026-05-07 06:44 | -13.17937 | 161.79775 | 38868 ft | 499 kts | 157° |
| 2026-05-07 06:44 | -13.24232 | 161.82786 | 38869 ft | 499 kts | 158° |
| 2026-05-07 06:45 | -13.30486 | 161.85778 | 38867 ft | 499 kts | 158° |
| 2026-05-07 06:45 | -13.36783 | 161.88793 | 38868 ft | 499 kts | 158° |
| 2026-05-07 06:46 | -13.43085 | 161.91812 | 38867 ft | 499 kts | 158° |
| 2026-05-07 06:46 | -13.49381 | 161.94830 | 38868 ft | 499 kts | 158° |
| 2026-05-07 06:47 | -13.55676 | 161.97849 | 38873 ft | 499 kts | 158° |
| 2026-05-07 06:47 | -13.61979 | 162.00874 | 38871 ft | 499 kts | 158° |
| 2026-05-07 06:48 | -13.68276 | 162.03898 | 38867 ft | 499 kts | 157° |
| 2026-05-07 06:48 | -13.74578 | 162.06926 | 38874 ft | 499 kts | 157° |
| 2026-05-07 06:49 | -13.80872 | 162.09952 | 38872 ft | 499 kts | 157° |
| 2026-05-07 06:49 | -13.87168 | 162.12981 | 38874 ft | 499 kts | 157° |
| 2026-05-07 06:50 | -13.93463 | 162.16011 | 38873 ft | 499 kts | 157° |
| 2026-05-07 06:50 | -13.99754 | 162.19042 | 38874 ft | 499 kts | 157° |
| 2026-05-07 06:51 | -14.06056 | 162.22073 | 38876 ft | 499 kts | 158° |
| 2026-05-07 06:51 | -14.12357 | 162.25084 | 38875 ft | 499 kts | 158° |
| 2026-05-07 06:52 | -14.18660 | 162.28099 | 38876 ft | 499 kts | 158° |
| 2026-05-07 06:52 | -14.24952 | 162.31114 | 38878 ft | 499 kts | 158° |
| 2026-05-07 06:53 | -14.31245 | 162.34134 | 38879 ft | 499 kts | 158° |
| 2026-05-07 06:53 | -14.37545 | 162.37159 | 38874 ft | 499 kts | 158° |
| 2026-05-07 06:54 | -14.43842 | 162.40185 | 38877 ft | 499 kts | 158° |
| 2026-05-07 06:54 | -14.50145 | 162.43215 | 38881 ft | 499 kts | 158° |
| 2026-05-07 06:55 | -14.56442 | 162.46245 | 38885 ft | 500 kts | 158° |
| 2026-05-07 06:55 | -14.62746 | 162.49280 | 38882 ft | 500 kts | 158° |
| 2026-05-07 06:56 | -14.69021 | 162.52302 | 38886 ft | 501 kts | 158° |
| 2026-05-07 06:56 | -14.75341 | 162.55348 | 38885 ft | 501 kts | 158° |
| 2026-05-07 06:57 | -14.81662 | 162.58396 | 38883 ft | 501 kts | 158° |
| 2026-05-07 06:57 | -14.87980 | 162.61446 | 38885 ft | 501 kts | 158° |
| 2026-05-07 06:58 | -14.94290 | 162.64494 | 38886 ft | 500 kts | 158° |
| 2026-05-07 06:58 | -15.00600 | 162.67543 | 38888 ft | 501 kts | 158° |
| 2026-05-07 06:59 | -15.06916 | 162.70597 | 38885 ft | 501 kts | 158° |
| 2026-05-07 06:59 | -15.13240 | 162.73657 | 38887 ft | 502 kts | 158° |
| 2026-05-07 07:00 | -15.19561 | 162.76717 | 38891 ft | 502 kts | 158° |
| 2026-05-07 07:00 | -15.25880 | 162.79779 | 38893 ft | 502 kts | 158° |
| 2026-05-07 07:01 | -15.32202 | 162.82845 | 38895 ft | 502 kts | 158° |
| 2026-05-07 07:01 | -15.38518 | 162.85909 | 38892 ft | 501 kts | 158° |
| 2026-05-07 07:02 | -15.44838 | 162.88978 | 38889 ft | 501 kts | 158° |
| 2026-05-07 07:02 | -15.51149 | 162.92043 | 38893 ft | 501 kts | 158° |
| 2026-05-07 07:03 | -15.57470 | 162.95116 | 38897 ft | 501 kts | 158° |
| 2026-05-07 07:03 | -15.63775 | 162.98184 | 38900 ft | 500 kts | 158° |
| 2026-05-07 07:04 | -15.70083 | 163.01256 | 38905 ft | 500 kts | 159° |
| 2026-05-07 07:04 | -15.76378 | 163.04322 | 38896 ft | 500 kts | 159° |
| 2026-05-07 07:05 | -15.82673 | 163.07391 | 38895 ft | 500 kts | 159° |
| 2026-05-07 07:05 | -15.88926 | 163.10441 | 38895 ft | 500 kts | 159° |
| 2026-05-07 07:06 | -15.95225 | 163.13516 | 38905 ft | 500 kts | 159° |
| 2026-05-07 07:06 | -16.01519 | 163.16591 | 38908 ft | 500 kts | 159° |
| 2026-05-07 07:07 | -16.07812 | 163.19667 | 38900 ft | 500 kts | 159° |
| 2026-05-07 07:07 | -16.14110 | 163.22748 | 38899 ft | 500 kts | 159° |
| 2026-05-07 07:08 | -16.20414 | 163.25834 | 38901 ft | 500 kts | 159° |
| 2026-05-07 07:08 | -16.26710 | 163.28918 | 38902 ft | 500 kts | 159° |
| 2026-05-07 07:09 | -16.33007 | 163.32006 | 38912 ft | 500 kts | 159° |
| 2026-05-07 07:09 | -16.39301 | 163.35094 | 38908 ft | 500 kts | 159° |
| 2026-05-07 07:10 | -16.45608 | 163.38189 | 38909 ft | 501 kts | 159° |
| 2026-05-07 07:10 | -16.51915 | 163.41288 | 38908 ft | 501 kts | 159° |
| 2026-05-07 07:11 | -16.58231 | 163.44393 | 38909 ft | 501 kts | 159° |
| 2026-05-07 07:11 | -16.64539 | 163.47497 | 38908 ft | 501 kts | 159° |
| 2026-05-07 07:12 | -16.70810 | 163.50585 | 38910 ft | 501 kts | 159° |
| 2026-05-07 07:12 | -16.77125 | 163.53696 | 38914 ft | 502 kts | 159° |
| 2026-05-07 07:13 | -16.83439 | 163.56809 | 38915 ft | 502 kts | 159° |
| 2026-05-07 07:13 | -16.89759 | 163.59928 | 38914 ft | 502 kts | 159° |
| 2026-05-07 07:14 | -16.96082 | 163.63050 | 38919 ft | 502 kts | 159° |
| 2026-05-07 07:14 | -17.02395 | 163.66171 | 38921 ft | 502 kts | 159° |
| 2026-05-07 07:15 | -17.08712 | 163.69295 | 38926 ft | 502 kts | 160° |
| 2026-05-07 07:15 | -17.15024 | 163.72419 | 38922 ft | 502 kts | 160° |
| 2026-05-07 07:16 | -17.21341 | 163.75547 | 38922 ft | 502 kts | 160° |
| 2026-05-07 07:16 | -17.26585 | 163.78146 | 38922 ft | 502 kts | 160° |
| 2026-05-07 07:17 | -17.32896 | 163.81276 | 38925 ft | 502 kts | 160° |
| 2026-05-07 07:17 | -17.39210 | 163.84410 | 38925 ft | 502 kts | 160° |
| 2026-05-07 07:18 | -17.45522 | 163.87546 | 38927 ft | 502 kts | 160° |
| 2026-05-07 07:18 | -17.51832 | 163.90683 | 38930 ft | 502 kts | 160° |
| 2026-05-07 07:19 | -17.58143 | 163.93823 | 38927 ft | 502 kts | 160° |
| 2026-05-07 07:19 | -17.64450 | 163.96964 | 38927 ft | 502 kts | 160° |
| 2026-05-07 07:20 | -17.70759 | 164.00107 | 38930 ft | 502 kts | 160° |
| 2026-05-07 07:20 | -17.77066 | 164.03253 | 38942 ft | 502 kts | 160° |
| 2026-05-07 07:21 | -17.83373 | 164.06401 | 38936 ft | 502 kts | 160° |
| 2026-05-07 07:21 | -17.89679 | 164.09550 | 38936 ft | 502 kts | 160° |
| 2026-05-07 07:22 | -17.95983 | 164.12702 | 38938 ft | 502 kts | 160° |
| 2026-05-07 07:22 | -18.02288 | 164.15856 | 38939 ft | 502 kts | 160° |
| 2026-05-07 07:23 | -18.08551 | 164.18991 | 38941 ft | 502 kts | 160° |
| 2026-05-07 07:23 | -18.14854 | 164.22150 | 38943 ft | 502 kts | 160° |
| 2026-05-07 07:24 | -18.21210 | 164.25336 | 38943 ft | 502 kts | 160° |
| 2026-05-07 07:24 | -18.27518 | 164.28503 | 38945 ft | 503 kts | 160° |
| 2026-05-07 07:25 | -18.36983 | 164.33258 | 38947 ft | 503 kts | 160° |
| 2026-05-07 07:26 | -18.43253 | 164.36411 | 38951 ft | 503 kts | 160° |
| 2026-05-07 07:26 | -18.49559 | 164.39585 | 38952 ft | 502 kts | 160° |
| 2026-05-07 07:27 | -18.55869 | 164.42764 | 38948 ft | 503 kts | 160° |
| 2026-05-07 07:27 | -18.62179 | 164.45945 | 38955 ft | 503 kts | 160° |
| 2026-05-07 07:28 | -18.68491 | 164.49129 | 38957 ft | 503 kts | 160° |
| 2026-05-07 07:28 | -18.74802 | 164.52316 | 38958 ft | 503 kts | 160° |
| 2026-05-07 07:29 | -18.81115 | 164.55507 | 38971 ft | 503 kts | 161° |
| 2026-05-07 07:29 | -18.87427 | 164.58700 | 38958 ft | 503 kts | 161° |
| 2026-05-07 07:30 | -18.93745 | 164.61898 | 38958 ft | 504 kts | 161° |
| 2026-05-07 07:30 | -19.00062 | 164.65099 | 38960 ft | 503 kts | 161° |
| 2026-05-07 07:31 | -19.06343 | 164.68284 | 38963 ft | 503 kts | 161° |
| 2026-05-07 07:31 | -19.12665 | 164.71492 | 38961 ft | 504 kts | 161° |
| 2026-05-07 07:32 | -19.18978 | 164.74700 | 38966 ft | 503 kts | 161° |
| 2026-05-07 07:32 | -19.25284 | 164.77906 | 38963 ft | 503 kts | 161° |
| 2026-05-07 07:33 | -19.31585 | 164.81111 | 38968 ft | 503 kts | 161° |
| 2026-05-07 07:33 | -19.37889 | 164.84322 | 38968 ft | 503 kts | 161° |
| 2026-05-07 07:34 | -19.44193 | 164.87535 | 38967 ft | 503 kts | 161° |
| 2026-05-07 07:34 | -19.50494 | 164.90750 | 38982 ft | 503 kts | 161° |
| 2026-05-07 07:35 | -19.56790 | 164.93965 | 38976 ft | 503 kts | 161° |
| 2026-05-07 07:35 | -19.63094 | 164.97185 | 38974 ft | 503 kts | 161° |
| 2026-05-07 07:36 | -19.69396 | 165.00409 | 38976 ft | 503 kts | 161° |
| 2026-05-07 07:36 | -19.75698 | 165.03635 | 38977 ft | 503 kts | 161° |
| 2026-05-07 07:37 | -19.82000 | 165.06864 | 38980 ft | 503 kts | 161° |
| 2026-05-07 07:37 | -19.88295 | 165.10094 | 38983 ft | 502 kts | 162° |
| 2026-05-07 07:38 | -19.94547 | 165.13302 | 38985 ft | 502 kts | 162° |
| 2026-05-07 07:38 | -20.00844 | 165.16537 | 38983 ft | 502 kts | 162° |
| 2026-05-07 07:39 | -20.07146 | 165.19777 | 38987 ft | 502 kts | 162° |
| 2026-05-07 07:39 | -20.13435 | 165.23014 | 38988 ft | 502 kts | 162° |
| 2026-05-07 07:40 | -20.19725 | 165.26255 | 38997 ft | 502 kts | 162° |
| 2026-05-07 07:40 | -20.26018 | 165.29509 | 38994 ft | 503 kts | 162° |
| 2026-05-07 07:41 | -20.32310 | 165.32773 | 38994 ft | 503 kts | 162° |
| 2026-05-07 07:41 | -20.38604 | 165.36041 | 38996 ft | 503 kts | 162° |
| 2026-05-07 07:42 | -20.44896 | 165.39310 | 38993 ft | 503 kts | 162° |
| 2026-05-07 07:42 | -20.51147 | 165.42561 | 38995 ft | 503 kts | 162° |
| 2026-05-07 07:43 | -20.57448 | 165.45840 | 39008 ft | 504 kts | 162° |
| 2026-05-07 07:43 | -20.63753 | 165.49124 | 39009 ft | 504 kts | 162° |
| 2026-05-07 07:44 | -20.70064 | 165.52415 | 39009 ft | 504 kts | 162° |
| 2026-05-07 07:44 | -20.76376 | 165.55709 | 38999 ft | 504 kts | 162° |
| 2026-05-07 07:45 | -20.82677 | 165.59001 | 39017 ft | 504 kts | 162° |
| 2026-05-07 07:45 | -20.88982 | 165.62298 | 39016 ft | 504 kts | 162° |
| 2026-05-07 07:46 | -20.95249 | 165.65578 | 39017 ft | 505 kts | 162° |
| 2026-05-07 07:46 | -21.01552 | 165.68880 | 39015 ft | 504 kts | 162° |
| 2026-05-07 07:47 | -21.07856 | 165.72186 | 39015 ft | 504 kts | 162° |
| 2026-05-07 07:47 | -21.14163 | 165.75496 | 39016 ft | 505 kts | 162° |
| 2026-05-07 07:48 | -21.20468 | 165.78808 | 39021 ft | 505 kts | 162° |
| 2026-05-07 07:48 | -21.26772 | 165.82124 | 39014 ft | 504 kts | 162° |
| 2026-05-07 07:49 | -21.33066 | 165.85438 | 39020 ft | 504 kts | 162° |
| 2026-05-07 07:49 | -21.39319 | 165.88733 | 39015 ft | 504 kts | 162° |
| 2026-05-07 07:50 | -21.45612 | 165.92052 | 39015 ft | 504 kts | 162° |
| 2026-05-07 07:50 | -21.51909 | 165.95376 | 39009 ft | 504 kts | 162° |
| 2026-05-07 07:51 | -21.58206 | 165.98703 | 39015 ft | 504 kts | 162° |
| 2026-05-07 07:51 | -21.64502 | 166.02033 | 39012 ft | 505 kts | 162° |
| 2026-05-07 07:52 | -21.70800 | 166.05367 | 39007 ft | 505 kts | 162° |
| 2026-05-07 07:52 | -21.77103 | 166.08708 | 38996 ft | 505 kts | 162° |
| 2026-05-07 07:53 | -21.83399 | 166.12048 | 38999 ft | 505 kts | 162° |
| 2026-05-07 07:53 | -21.89697 | 166.15392 | 39000 ft | 505 kts | 162° |
| 2026-05-07 07:54 | -21.95988 | 166.18737 | 38995 ft | 504 kts | 162° |
| 2026-05-07 07:54 | -22.02280 | 166.22087 | 39136 ft | 505 kts | 162° |
| 2026-05-07 07:54 | -22.05419 | 166.23769 | 39317 ft | 504 kts | 162° |
| 2026-05-07 07:55 | -22.08557 | 166.25454 | 39482 ft | 504 kts | 162° |
| 2026-05-07 07:55 | -22.11692 | 166.27139 | 39628 ft | 503 kts | 162° |
| 2026-05-07 07:55 | -22.14823 | 166.28823 | 39773 ft | 503 kts | 162° |
| 2026-05-07 07:55 | -22.17916 | 166.30486 | 39897 ft | 503 kts | 162° |
| 2026-05-07 07:56 | -22.21046 | 166.32170 | 40040 ft | 503 kts | 162° |
| 2026-05-07 07:56 | -22.27317 | 166.35545 | 40255 ft | 504 kts | 162° |
| 2026-05-07 07:56 | -22.30453 | 166.37234 | 40389 ft | 503 kts | 162° |
| 2026-05-07 07:57 | -22.33586 | 166.38922 | 40518 ft | 503 kts | 161° |
| 2026-05-07 07:57 | -22.36717 | 166.40611 | 40635 ft | 503 kts | 161° |
| 2026-05-07 07:57 | -22.39846 | 166.42298 | 40747 ft | 503 kts | 161° |
| 2026-05-07 07:57 | -22.42979 | 166.43989 | 40866 ft | 503 kts | 161° |
| 2026-05-07 07:58 | -22.46107 | 166.45679 | 40979 ft | 503 kts | 161° |
| 2026-05-07 07:58 | -22.52367 | 166.49061 | 41002 ft | 503 kts | 161° |
| 2026-05-07 07:59 | -22.58628 | 166.52448 | 41014 ft | 502 kts | 161° |
| 2026-05-07 07:59 | -22.64882 | 166.55835 | 41009 ft | 502 kts | 161° |
| 2026-05-07 08:00 | -22.71125 | 166.59219 | 41021 ft | 502 kts | 161° |
| 2026-05-07 08:00 | -22.77369 | 166.62607 | 41026 ft | 502 kts | 161° |
| 2026-05-07 08:01 | -22.83609 | 166.65996 | 41024 ft | 502 kts | 161° |
| 2026-05-07 08:01 | -22.89859 | 166.69394 | 41027 ft | 502 kts | 161° |
| 2026-05-07 08:02 | -22.96107 | 166.72794 | 41036 ft | 503 kts | 161° |
| 2026-05-07 08:02 | -23.02365 | 166.76204 | 41037 ft | 503 kts | 161° |
| 2026-05-07 08:03 | -23.08617 | 166.79614 | 41040 ft | 503 kts | 161° |
| 2026-05-07 08:03 | -23.14872 | 166.83029 | 41040 ft | 503 kts | 161° |
| 2026-05-07 08:04 | -23.20071 | 166.85871 | 41062 ft | 503 kts | 161° |
| 2026-05-07 08:04 | -23.26325 | 166.89293 | 41044 ft | 502 kts | 161° |
| 2026-05-07 08:05 | -23.32563 | 166.92709 | 41048 ft | 502 kts | 161° |
| 2026-05-07 08:05 | -23.38800 | 166.96128 | 41050 ft | 502 kts | 161° |
| 2026-05-07 08:06 | -23.45043 | 166.99553 | 41048 ft | 502 kts | 161° |
| 2026-05-07 08:06 | -23.51280 | 167.02980 | 41047 ft | 502 kts | 161° |
| 2026-05-07 08:07 | -23.57521 | 167.06412 | 41044 ft | 502 kts | 161° |
| 2026-05-07 08:07 | -23.63720 | 167.09825 | 41047 ft | 502 kts | 161° |
| 2026-05-07 08:08 | -23.69958 | 167.13262 | 41054 ft | 503 kts | 161° |
| 2026-05-07 08:08 | -23.76204 | 167.16709 | 41057 ft | 503 kts | 161° |
| 2026-05-07 08:09 | -23.82448 | 167.20157 | 41056 ft | 503 kts | 161° |
| 2026-05-07 08:09 | -23.88688 | 167.23608 | 41058 ft | 502 kts | 161° |
| 2026-05-07 08:10 | -23.94912 | 167.27054 | 41056 ft | 501 kts | 161° |
| 2026-05-07 08:10 | -24.01139 | 167.30505 | 41056 ft | 501 kts | 161° |
| 2026-05-07 08:11 | -24.07362 | 167.33956 | 41057 ft | 501 kts | 161° |
| 2026-05-07 08:11 | -24.13577 | 167.37407 | 41059 ft | 501 kts | 161° |
| 2026-05-07 08:12 | -24.19760 | 167.40845 | 41061 ft | 501 kts | 161° |
| 2026-05-07 08:12 | -24.25979 | 167.44306 | 41061 ft | 501 kts | 161° |
| 2026-05-07 08:13 | -24.32197 | 167.47770 | 41060 ft | 501 kts | 161° |
| 2026-05-07 08:13 | -24.38413 | 167.51238 | 41062 ft | 501 kts | 161° |
| 2026-05-07 08:14 | -24.44629 | 167.54709 | 41063 ft | 501 kts | 161° |
| 2026-05-07 08:14 | -24.50845 | 167.58184 | 41078 ft | 501 kts | 161° |
| 2026-05-07 08:15 | -24.57054 | 167.61660 | 41066 ft | 500 kts | 161° |
| 2026-05-07 08:15 | -24.63245 | 167.65130 | 41067 ft | 499 kts | 161° |
| 2026-05-07 08:16 | -24.69437 | 167.68602 | 41068 ft | 499 kts | 161° |
| 2026-05-07 08:16 | -24.75625 | 167.72077 | 41067 ft | 499 kts | 161° |
| 2026-05-07 08:17 | -24.81771 | 167.75535 | 41068 ft | 500 kts | 161° |
| 2026-05-07 08:17 | -24.87958 | 167.79026 | 41070 ft | 500 kts | 161° |
| 2026-05-07 08:18 | -24.94148 | 167.82520 | 41075 ft | 500 kts | 161° |
| 2026-05-07 08:18 | -25.00335 | 167.86017 | 41075 ft | 500 kts | 161° |
| 2026-05-07 08:19 | -25.06524 | 167.89521 | 41078 ft | 500 kts | 161° |
| 2026-05-07 08:19 | -25.12725 | 167.93035 | 41078 ft | 500 kts | 161° |
| 2026-05-07 08:20 | -25.18910 | 167.96545 | 41082 ft | 500 kts | 161° |
| 2026-05-07 08:20 | -25.25097 | 168.00059 | 41078 ft | 500 kts | 161° |
| 2026-05-07 08:21 | -25.31239 | 168.03552 | 41081 ft | 499 kts | 161° |
| 2026-05-07 08:21 | -25.37414 | 168.07067 | 41080 ft | 499 kts | 161° |
| 2026-05-07 08:22 | -25.43592 | 168.10588 | 41083 ft | 500 kts | 161° |
| 2026-05-07 08:22 | -25.49772 | 168.14115 | 41084 ft | 500 kts | 162° |
| 2026-05-07 08:23 | -25.55951 | 168.17645 | 41080 ft | 500 kts | 162° |
| 2026-05-07 08:23 | -25.62134 | 168.21182 | 41084 ft | 500 kts | 161° |
| 2026-05-07 08:24 | -25.68315 | 168.24722 | 41084 ft | 500 kts | 161° |
| 2026-05-07 08:24 | -25.74506 | 168.28271 | 41099 ft | 500 kts | 161° |
| 2026-05-07 08:25 | -25.80650 | 168.31798 | 41103 ft | 500 kts | 162° |
| 2026-05-07 08:25 | -25.86839 | 168.35355 | 41089 ft | 500 kts | 162° |
| 2026-05-07 08:26 | -25.96099 | 168.40685 | 41097 ft | 500 kts | 162° |
| 2026-05-07 08:26 | -26.02273 | 168.44243 | 41091 ft | 500 kts | 162° |
| 2026-05-07 08:27 | -26.08449 | 168.47807 | 41096 ft | 500 kts | 161° |
| 2026-05-07 08:27 | -26.14620 | 168.51372 | 41099 ft | 500 kts | 162° |
| 2026-05-07 08:28 | -26.20801 | 168.54946 | 41097 ft | 501 kts | 162° |
| 2026-05-07 08:28 | -26.26989 | 168.58531 | 41096 ft | 501 kts | 162° |
| 2026-05-07 08:29 | -26.33173 | 168.62117 | 41100 ft | 501 kts | 162° |
| 2026-05-07 08:29 | -26.39359 | 168.65709 | 41099 ft | 501 kts | 162° |
| 2026-05-07 08:30 | -26.45549 | 168.69307 | 41115 ft | 502 kts | 162° |
| 2026-05-07 08:30 | -26.51743 | 168.72912 | 41102 ft | 501 kts | 162° |
| 2026-05-07 08:31 | -26.57917 | 168.76510 | 41109 ft | 500 kts | 162° |
| 2026-05-07 08:31 | -26.64089 | 168.80111 | 41106 ft | 500 kts | 162° |
| 2026-05-07 08:32 | -26.70220 | 168.83691 | 41108 ft | 500 kts | 162° |
| 2026-05-07 08:32 | -26.76391 | 168.87300 | 41104 ft | 501 kts | 162° |
| 2026-05-07 08:33 | -26.82578 | 168.90922 | 41105 ft | 501 kts | 162° |
| 2026-05-07 08:33 | -26.88759 | 168.94546 | 41110 ft | 502 kts | 162° |
| 2026-05-07 08:34 | -26.94937 | 168.98173 | 41107 ft | 502 kts | 162° |
| 2026-05-07 08:34 | -27.01122 | 169.01808 | 41110 ft | 501 kts | 162° |
| 2026-05-07 08:35 | -27.07301 | 169.05445 | 41114 ft | 502 kts | 162° |
| 2026-05-07 08:35 | -27.13495 | 169.09098 | 41110 ft | 503 kts | 162° |
| 2026-05-07 08:36 | -27.19695 | 169.12758 | 41110 ft | 503 kts | 162° |
| 2026-05-07 08:36 | -27.25889 | 169.16418 | 41109 ft | 503 kts | 162° |
| 2026-05-07 08:37 | -27.32044 | 169.20061 | 41112 ft | 503 kts | 162° |
| 2026-05-07 08:37 | -27.38235 | 169.23730 | 41112 ft | 503 kts | 162° |
| 2026-05-07 08:38 | -27.44429 | 169.27405 | 41114 ft | 503 kts | 162° |
| 2026-05-07 08:38 | -27.50661 | 169.31108 | 41119 ft | 503 kts | 162° |
| 2026-05-07 08:39 | -27.56856 | 169.34794 | 41117 ft | 503 kts | 162° |
| 2026-05-07 08:39 | -27.63009 | 169.38459 | 41115 ft | 503 kts | 162° |
| 2026-05-07 08:40 | -27.69199 | 169.42151 | 41119 ft | 504 kts | 162° |
| 2026-05-07 08:40 | -27.75403 | 169.45857 | 41119 ft | 503 kts | 162° |
| 2026-05-07 08:41 | -27.81587 | 169.49555 | 41117 ft | 503 kts | 162° |
| 2026-05-07 08:41 | -27.87763 | 169.53253 | 41118 ft | 503 kts | 162° |
| 2026-05-07 08:42 | -27.93943 | 169.56958 | 41123 ft | 503 kts | 162° |
| 2026-05-07 08:42 | -28.00125 | 169.60669 | 41127 ft | 503 kts | 162° |
| 2026-05-07 08:43 | -28.06313 | 169.64388 | 41118 ft | 504 kts | 162° |
| 2026-05-07 08:43 | -28.12501 | 169.68113 | 41119 ft | 504 kts | 162° |
| 2026-05-07 08:44 | -28.18691 | 169.71844 | 41124 ft | 504 kts | 162° |
| 2026-05-07 08:44 | -28.24836 | 169.75553 | 41124 ft | 504 kts | 162° |
| 2026-05-07 08:45 | -28.31024 | 169.79293 | 41127 ft | 504 kts | 162° |
| 2026-05-07 08:45 | -28.37207 | 169.83034 | 41126 ft | 503 kts | 161° |
| 2026-05-07 08:46 | -28.43386 | 169.86779 | 41127 ft | 503 kts | 161° |
| 2026-05-07 08:46 | -28.49562 | 169.90526 | 41127 ft | 503 kts | 161° |
| 2026-05-07 08:47 | -28.55736 | 169.94276 | 41132 ft | 503 kts | 161° |
| 2026-05-07 08:47 | -28.61913 | 169.98034 | 41138 ft | 503 kts | 161° |
| 2026-05-07 08:48 | -28.68098 | 170.01801 | 41125 ft | 504 kts | 161° |
| 2026-05-07 08:48 | -28.74277 | 170.05570 | 41124 ft | 504 kts | 161° |
| 2026-05-07 08:49 | -28.80456 | 170.09344 | 41131 ft | 504 kts | 161° |
| 2026-05-07 08:49 | -28.86633 | 170.13123 | 41135 ft | 504 kts | 161° |
| 2026-05-07 08:50 | -28.92818 | 170.16910 | 41135 ft | 505 kts | 161° |
| 2026-05-07 08:50 | -28.98996 | 170.20700 | 41132 ft | 504 kts | 161° |
| 2026-05-07 08:51 | -29.05141 | 170.24475 | 41135 ft | 503 kts | 161° |
| 2026-05-07 08:51 | -29.11312 | 170.28270 | 41134 ft | 504 kts | 161° |
| 2026-05-07 08:52 | -29.17480 | 170.32068 | 41137 ft | 504 kts | 161° |
| 2026-05-07 08:52 | -29.23656 | 170.35875 | 41138 ft | 504 kts | 161° |
| 2026-05-07 08:53 | -29.28833 | 170.39071 | 41137 ft | 505 kts | 161° |
| 2026-05-07 08:53 | -29.34975 | 170.42868 | 41137 ft | 505 kts | 161° |
| 2026-05-07 08:54 | -29.41157 | 170.46696 | 41143 ft | 505 kts | 161° |
| 2026-05-07 08:54 | -29.47337 | 170.50528 | 41143 ft | 505 kts | 161° |
| 2026-05-07 08:55 | -29.53517 | 170.54364 | 41150 ft | 505 kts | 161° |
| 2026-05-07 08:55 | -29.59686 | 170.58201 | 41144 ft | 504 kts | 161° |
| 2026-05-07 08:56 | -29.65851 | 170.62040 | 41139 ft | 504 kts | 161° |
| 2026-05-07 08:56 | -29.72010 | 170.65880 | 41138 ft | 504 kts | 161° |
| 2026-05-07 08:57 | -29.78173 | 170.69727 | 41143 ft | 504 kts | 161° |
| 2026-05-07 08:57 | -29.84339 | 170.73581 | 41143 ft | 504 kts | 160° |
| 2026-05-07 08:58 | -29.90507 | 170.77443 | 41148 ft | 505 kts | 160° |
| 2026-05-07 08:58 | -29.96671 | 170.81311 | 41148 ft | 505 kts | 160° |
| 2026-05-07 08:59 | -30.02838 | 170.85185 | 41149 ft | 505 kts | 160° |
| 2026-05-07 08:59 | -30.09006 | 170.89061 | 41162 ft | 505 kts | 160° |
| 2026-05-07 09:00 | -30.15177 | 170.92946 | 41156 ft | 505 kts | 160° |
| 2026-05-07 09:00 | -30.21344 | 170.96837 | 41154 ft | 504 kts | 160° |
| 2026-05-07 09:01 | -30.27497 | 171.00724 | 41148 ft | 504 kts | 160° |
| 2026-05-07 09:01 | -30.33618 | 171.04595 | 41148 ft | 504 kts | 160° |
| 2026-05-07 09:02 | -30.39773 | 171.08494 | 41153 ft | 504 kts | 160° |
| 2026-05-07 09:02 | -30.45932 | 171.12401 | 41151 ft | 504 kts | 160° |
| 2026-05-07 09:03 | -30.52084 | 171.16310 | 41153 ft | 504 kts | 160° |
| 2026-05-07 09:03 | -30.58235 | 171.20223 | 41153 ft | 504 kts | 160° |
| 2026-05-07 09:04 | -30.64389 | 171.24144 | 41152 ft | 504 kts | 160° |
| 2026-05-07 09:04 | -30.70543 | 171.28070 | 41157 ft | 505 kts | 160° |
| 2026-05-07 09:05 | -30.76685 | 171.31997 | 41152 ft | 503 kts | 159° |
| 2026-05-07 09:05 | -30.82815 | 171.35921 | 41156 ft | 503 kts | 159° |
| 2026-05-07 09:06 | -30.88941 | 171.39847 | 41156 ft | 503 kts | 159° |
| 2026-05-07 09:06 | -30.95069 | 171.43780 | 41158 ft | 503 kts | 159° |
| 2026-05-07 09:07 | -31.01196 | 171.47717 | 41157 ft | 503 kts | 159° |
| 2026-05-07 09:07 | -31.07327 | 171.51664 | 41159 ft | 503 kts | 159° |
| 2026-05-07 09:08 | -31.13456 | 171.55615 | 41159 ft | 503 kts | 159° |
| 2026-05-07 09:08 | -31.19584 | 171.59572 | 41159 ft | 503 kts | 159° |
| 2026-05-07 09:09 | -31.25668 | 171.63506 | 41178 ft | 503 kts | 159° |
| 2026-05-07 09:09 | -31.31794 | 171.67473 | 41160 ft | 502 kts | 158° |
| 2026-05-07 09:10 | -31.37897 | 171.71433 | 41165 ft | 501 kts | 158° |
| 2026-05-07 09:10 | -31.44000 | 171.75398 | 41164 ft | 501 kts | 158° |
| 2026-05-07 09:11 | -31.50093 | 171.79360 | 41165 ft | 501 kts | 158° |
| 2026-05-07 09:11 | -31.56189 | 171.83331 | 41171 ft | 501 kts | 158° |
| 2026-05-07 09:12 | -31.62292 | 171.87312 | 41168 ft | 502 kts | 158° |
| 2026-05-07 09:12 | -31.68393 | 171.91300 | 41167 ft | 502 kts | 158° |
| 2026-05-07 09:13 | -31.74495 | 171.95293 | 41167 ft | 502 kts | 158° |
| 2026-05-07 09:13 | -31.80597 | 171.99293 | 41173 ft | 502 kts | 158° |
| 2026-05-07 09:14 | -31.86697 | 172.03296 | 41175 ft | 503 kts | 157° |
| 2026-05-07 09:14 | -31.92800 | 172.07309 | 41173 ft | 502 kts | 157° |
| 2026-05-07 09:15 | -31.98893 | 172.11323 | 41175 ft | 501 kts | 157° |
| 2026-05-07 09:15 | -32.04980 | 172.15337 | 41175 ft | 501 kts | 157° |
| 2026-05-07 09:16 | -32.11065 | 172.19356 | 41189 ft | 501 kts | 157° |
| 2026-05-07 09:16 | -32.17162 | 172.23388 | 41176 ft | 502 kts | 157° |
| 2026-05-07 09:17 | -32.23257 | 172.27427 | 41176 ft | 503 kts | 157° |
| 2026-05-07 09:17 | -32.29357 | 172.31474 | 41179 ft | 503 kts | 157° |
| 2026-05-07 09:18 | -32.35456 | 172.35529 | 41178 ft | 503 kts | 157° |
| 2026-05-07 09:18 | -32.41554 | 172.39588 | 41183 ft | 503 kts | 157° |
| 2026-05-07 09:19 | -32.47657 | 172.43656 | 41178 ft | 503 kts | 157° |
| 2026-05-07 09:19 | -32.53749 | 172.47725 | 41179 ft | 503 kts | 156° |
| 2026-05-07 09:20 | -32.59837 | 172.51796 | 41179 ft | 502 kts | 156° |
| 2026-05-07 09:20 | -32.65926 | 172.55875 | 41178 ft | 502 kts | 156° |
| 2026-05-07 09:21 | -32.72017 | 172.59960 | 41179 ft | 503 kts | 156° |
| 2026-05-07 09:21 | -32.78109 | 172.64054 | 41176 ft | 503 kts | 156° |
| 2026-05-07 09:22 | -32.84202 | 172.68156 | 41180 ft | 503 kts | 156° |
| 2026-05-07 09:22 | -32.90292 | 172.72261 | 41182 ft | 503 kts | 156° |
| 2026-05-07 09:23 | -32.96386 | 172.76376 | 41190 ft | 504 kts | 156° |
| 2026-05-07 09:23 | -33.02484 | 172.80499 | 41180 ft | 504 kts | 156° |
| 2026-05-07 09:24 | -33.08584 | 172.84631 | 41181 ft | 504 kts | 156° |
| 2026-05-07 09:24 | -33.14683 | 172.88769 | 41189 ft | 504 kts | 156° |
| 2026-05-07 09:25 | -33.20779 | 172.92912 | 41190 ft | 504 kts | 156° |
| 2026-05-07 09:25 | -33.26879 | 172.97064 | 41189 ft | 504 kts | 156° |
| 2026-05-07 09:26 | -33.32975 | 173.01219 | 41193 ft | 504 kts | 156° |
| 2026-05-07 09:26 | -33.39064 | 173.05377 | 41192 ft | 504 kts | 156° |
| 2026-05-07 09:27 | -33.45157 | 173.09545 | 41193 ft | 504 kts | 156° |
| 2026-05-07 09:28 | -33.54295 | 173.15807 | 41191 ft | 505 kts | 156° |
| 2026-05-07 09:28 | -33.60389 | 173.19993 | 41191 ft | 504 kts | 156° |
| 2026-05-07 09:29 | -33.66435 | 173.24153 | 41193 ft | 504 kts | 156° |
| 2026-05-07 09:29 | -33.72527 | 173.28350 | 41191 ft | 504 kts | 156° |
| 2026-05-07 09:30 | -33.78609 | 173.32548 | 41209 ft | 504 kts | 155° |
| 2026-05-07 09:30 | -33.84704 | 173.36760 | 41197 ft | 506 kts | 155° |
| 2026-05-07 09:31 | -33.91065 | 173.39966 | 41197 ft | 485 kts | 178° |
| 2026-05-07 09:31 | -33.97736 | 173.40492 | 41194 ft | 481 kts | 182° |
| 2026-05-07 09:32 | -34.04437 | 173.41071 | 41210 ft | 484 kts | 181° |
| 2026-05-07 09:32 | -34.11155 | 173.41802 | 41205 ft | 485 kts | 180° |
| 2026-05-07 09:33 | -34.17883 | 173.42584 | 41196 ft | 486 kts | 180° |
| 2026-05-07 09:33 | -34.24612 | 173.43383 | 41197 ft | 486 kts | 180° |
| 2026-05-07 09:34 | -34.31345 | 173.44187 | 41213 ft | 486 kts | 180° |
| 2026-05-07 09:34 | -34.38095 | 173.44995 | 41194 ft | 488 kts | 180° |
| 2026-05-07 09:35 | -34.44854 | 173.45806 | 41195 ft | 488 kts | 180° |
| 2026-05-07 09:35 | -34.51613 | 173.46619 | 41199 ft | 488 kts | 180° |
| 2026-05-07 09:36 | -34.58330 | 173.47428 | 41202 ft | 488 kts | 180° |
| 2026-05-07 09:36 | -34.65099 | 173.48245 | 41198 ft | 489 kts | 180° |
| 2026-05-07 09:37 | -34.71875 | 173.49064 | 41198 ft | 490 kts | 180° |
| 2026-05-07 09:37 | -34.78654 | 173.49884 | 41197 ft | 490 kts | 180° |
| 2026-05-07 09:38 | -34.84295 | 173.50568 | 41205 ft | 490 kts | 180° |
| 2026-05-07 09:38 | -34.91089 | 173.51392 | 41197 ft | 491 kts | 180° |
| 2026-05-07 09:39 | -34.97892 | 173.52220 | 41196 ft | 491 kts | 180° |
| 2026-05-07 09:39 | -35.04693 | 173.53048 | 41198 ft | 491 kts | 180° |
| 2026-05-07 09:40 | -35.11544 | 173.53878 | 41197 ft | 491 kts | 179° |
| 2026-05-07 09:40 | -35.18308 | 173.54707 | 41194 ft | 492 kts | 179° |
| 2026-05-07 09:41 | -35.25125 | 173.55544 | 41194 ft | 492 kts | 179° |
| 2026-05-07 09:41 | -35.28519 | 173.55962 | 40772 ft | 489 kts | 179° |
| 2026-05-07 09:41 | -35.31902 | 173.56378 | 40042 ft | 491 kts | 180° |
| 2026-05-07 09:41 | -35.35310 | 173.56795 | 39302 ft | 493 kts | 179° |
| 2026-05-07 09:42 | -35.38720 | 173.57213 | 38515 ft | 495 kts | 179° |
| 2026-05-07 09:42 | -35.42160 | 173.57635 | 37602 ft | 498 kts | 179° |
| 2026-05-07 09:42 | -35.45609 | 173.58059 | 36871 ft | 498 kts | 178° |
| 2026-05-07 09:42 | -35.49051 | 173.58484 | 36208 ft | 496 kts | 178° |
| 2026-05-07 09:43 | -35.52485 | 173.58908 | 35521 ft | 496 kts | 178° |
| 2026-05-07 09:43 | -35.55921 | 173.59332 | 34787 ft | 497 kts | 177° |
| 2026-05-07 09:43 | -35.59369 | 173.59756 | 33997 ft | 500 kts | 177° |
| 2026-05-07 09:43 | -35.62845 | 173.60186 | 33112 ft | 503 kts | 176° |
| 2026-05-07 09:44 | -35.66342 | 173.60619 | 32283 ft | 505 kts | 176° |
| 2026-05-07 09:44 | -35.69850 | 173.61055 | 31426 ft | 507 kts | 176° |
| 2026-05-07 09:44 | -35.73369 | 173.61491 | 30552 ft | 510 kts | 176° |
| 2026-05-07 09:44 | -35.76921 | 173.61932 | 29545 ft | 513 kts | 176° |
| 2026-05-07 09:45 | -35.80471 | 173.62373 | 28732 ft | 512 kts | 176° |
| 2026-05-07 09:45 | -35.84000 | 173.62813 | 28088 ft | 507 kts | 176° |
| 2026-05-07 09:45 | -35.87491 | 173.63249 | 27462 ft | 502 kts | 176° |
| 2026-05-07 09:45 | -35.90835 | 173.63666 | 26835 ft | 498 kts | 176° |
| 2026-05-07 09:46 | -35.94267 | 173.64094 | 26198 ft | 494 kts | 176° |
| 2026-05-07 09:46 | -35.97678 | 173.64520 | 25554 ft | 490 kts | 176° |
| 2026-05-07 09:46 | -36.01054 | 173.64941 | 24919 ft | 486 kts | 176° |
| 2026-05-07 09:46 | -36.04410 | 173.65361 | 24287 ft | 483 kts | 176° |
| 2026-05-07 09:47 | -36.07731 | 173.65776 | 23656 ft | 479 kts | 176° |
| 2026-05-07 09:47 | -36.11032 | 173.66189 | 22959 ft | 475 kts | 176° |
| 2026-05-07 09:47 | -36.14299 | 173.66599 | 22331 ft | 469 kts | 176° |
| 2026-05-07 09:47 | -36.17523 | 173.67003 | 21716 ft | 463 kts | 176° |
| 2026-05-07 09:48 | -36.20704 | 173.67403 | 21103 ft | 457 kts | 176° |
| 2026-05-07 09:48 | -36.23855 | 173.67798 | 20489 ft | 452 kts | 176° |
| 2026-05-07 09:48 | -36.26968 | 173.68190 | 19878 ft | 447 kts | 176° |
| 2026-05-07 09:48 | -36.30052 | 173.68578 | 19265 ft | 443 kts | 176° |
| 2026-05-07 09:49 | -36.33112 | 173.68963 | 18646 ft | 440 kts | 176° |
| 2026-05-07 09:49 | -36.36119 | 173.69362 | 17988 ft | 437 kts | 175° |
| 2026-05-07 09:49 | -36.39053 | 173.70274 | 17245 ft | 435 kts | 159° |
| 2026-05-07 09:49 | -36.41603 | 173.72178 | 16589 ft | 434 kts | 141° |
| 2026-05-07 09:50 | -36.43816 | 173.74699 | 15940 ft | 430 kts | 136° |
| 2026-05-07 09:50 | -36.45935 | 173.77297 | 15293 ft | 426 kts | 135° |
| 2026-05-07 09:50 | -36.48029 | 173.79873 | 14654 ft | 423 kts | 135° |
| 2026-05-07 09:50 | -36.50112 | 173.82426 | 14104 ft | 417 kts | 135° |
| 2026-05-07 09:51 | -36.52143 | 173.84909 | 13959 ft | 400 kts | 135° |
| 2026-05-07 09:51 | -36.54083 | 173.87278 | 13822 ft | 383 kts | 135° |
| 2026-05-07 09:51 | -36.55948 | 173.89556 | 13683 ft | 368 kts | 135° |
| 2026-05-07 09:51 | -36.57736 | 173.91739 | 13452 ft | 356 kts | 135° |
| 2026-05-07 09:52 | -36.59387 | 173.93757 | 13027 ft | 352 kts | 135° |
| 2026-05-07 09:52 | -36.59964 | 173.94461 | 12886 ft | 351 kts | 135° |
| 2026-05-07 09:52 | -36.61691 | 173.96580 | 12475 ft | 346 kts | 135° |
| 2026-05-07 09:52 | -36.63391 | 173.98662 | 12080 ft | 341 kts | 135° |
| 2026-05-07 09:53 | -36.65075 | 174.00718 | 11689 ft | 336 kts | 135° |
| 2026-05-07 09:53 | -36.66730 | 174.02742 | 11306 ft | 331 kts | 135° |
| 2026-05-07 09:53 | -36.68364 | 174.04742 | 10917 ft | 328 kts | 135° |
| 2026-05-07 09:53 | -36.69990 | 174.06733 | 10560 ft | 326 kts | 135° |
| 2026-05-07 09:54 | -36.71578 | 174.08680 | 10382 ft | 315 kts | 134° |
| 2026-05-07 09:54 | -36.73119 | 174.10571 | 10162 ft | 307 kts | 134° |
| 2026-05-07 09:54 | -36.74614 | 174.12407 | 9917 ft | 299 kts | 134° |
| 2026-05-07 09:54 | -36.76095 | 174.14228 | 9589 ft | 305 kts | 134° |
| 2026-05-07 09:55 | -36.77593 | 174.16077 | 9369 ft | 301 kts | 134° |
| 2026-05-07 09:55 | -36.79088 | 174.17917 | 9000 ft | 303 kts | 134° |
| 2026-05-07 09:55 | -36.80560 | 174.19726 | 8819 ft | 293 kts | 134° |
| 2026-05-07 09:55 | -36.82004 | 174.21502 | 8517 ft | 290 kts | 134° |
| 2026-05-07 09:56 | -36.83441 | 174.23272 | 8246 ft | 290 kts | 134° |
| 2026-05-07 09:56 | -36.84873 | 174.25040 | 7964 ft | 288 kts | 134° |
| 2026-05-07 09:56 | -36.86295 | 174.26801 | 7657 ft | 287 kts | 134° |
| 2026-05-07 09:56 | -36.87713 | 174.28547 | 7367 ft | 286 kts | 134° |
| 2026-05-07 09:57 | -36.89128 | 174.30293 | 7072 ft | 284 kts | 135° |
| 2026-05-07 09:57 | -36.90528 | 174.32020 | 6771 ft | 283 kts | 134° |
| 2026-05-07 09:57 | -36.91927 | 174.33749 | 6460 ft | 282 kts | 135° |
| 2026-05-07 09:57 | -36.93315 | 174.35464 | 6157 ft | 279 kts | 134° |
| 2026-05-07 09:58 | -36.94691 | 174.37166 | 5881 ft | 278 kts | 135° |
| 2026-05-07 09:58 | -36.96059 | 174.38859 | 5560 ft | 276 kts | 134° |
| 2026-05-07 09:58 | -36.97422 | 174.40548 | 5251 ft | 275 kts | 134° |
| 2026-05-07 09:58 | -36.98783 | 174.42235 | 4945 ft | 276 kts | 134° |
| 2026-05-07 09:59 | -37.00123 | 174.43896 | 4615 ft | 274 kts | 134° |
| 2026-05-07 09:59 | -37.01470 | 174.45567 | 4309 ft | 272 kts | 133° |
| 2026-05-07 09:59 | -37.02807 | 174.47232 | 4025 ft | 268 kts | 133° |
| 2026-05-07 09:59 | -37.04102 | 174.48844 | 3842 ft | 258 kts | 133° |
| 2026-05-07 10:00 | -37.05357 | 174.50398 | 3721 ft | 250 kts | 133° |
| 2026-05-07 10:00 | -37.06581 | 174.51930 | 3565 ft | 247 kts | 131° |
| 2026-05-07 10:00 | -37.07486 | 174.53683 | 3511 ft | 231 kts | 103° |
| 2026-05-07 10:00 | -37.07540 | 174.55552 | 3447 ft | 207 kts | 74° |
| 2026-05-07 10:01 | -37.07100 | 174.57242 | 3356 ft | 204 kts | 63° |
| 2026-05-07 10:01 | -37.06618 | 174.58894 | 3052 ft | 200 kts | 65° |
| 2026-05-07 10:01 | -37.06190 | 174.60502 | 2759 ft | 194 kts | 65° |
| 2026-05-07 10:01 | -37.05752 | 174.62104 | 2492 ft | 194 kts | 65° |
| 2026-05-07 10:02 | -37.05313 | 174.63686 | 2239 ft | 192 kts | 65° |
| 2026-05-07 10:02 | -37.04888 | 174.65242 | 1979 ft | 187 kts | 64° |
| 2026-05-07 10:02 | -37.04467 | 174.66770 | 1709 ft | 184 kts | 65° |
| 2026-05-07 10:02 | -37.04059 | 174.68248 | 1451 ft | 174 kts | 66° |
| 2026-05-07 10:03 | -37.03685 | 174.69617 | 1242 ft | 159 kts | 65° |
| 2026-05-07 10:03 | -37.03335 | 174.70879 | 1031 ft | 146 kts | 66° |
| 2026-05-07 10:03 | -37.03019 | 174.72026 | 848 ft | 133 kts | 66° |
| 2026-05-07 10:03 | -37.02725 | 174.73094 | 681 ft | 129 kts | 66° |
| 2026-05-07 10:04 | -37.02429 | 174.74168 | 531 ft | 132 kts | 68° |
| 2026-05-07 10:04 | -37.02133 | 174.75247 | 358 ft | 131 kts | 67° |
| 2026-05-07 10:04 | -37.01836 | 174.76325 | 197 ft | 131 kts | 68° |
| 2026-05-07 10:04 | -37.01540 | 174.77398 | 45 ft | 128 kts | 70° |
| 2026-05-07 10:05 | -37.01281 | 174.78339 | 32 ft | 97 kts | 71° |
| 2026-05-07 10:05 | -37.01122 | 174.78925 | 32 ft | 43 kts | 71° |
| 2026-05-07 10:05 | -37.01028 | 174.79270 | 32 ft | 42 kts | 71° |
| 2026-05-07 10:05 | -37.00906 | 174.79580 | 32 ft | 40 kts | 45° |
| 2026-05-07 10:06 | -37.00741 | 174.79739 | 31 ft | 13 kts | 0° |
| 2026-05-07 10:06 | -37.00714 | 174.79725 | 32 ft | 9 kts | 333° |
| 2026-05-07 10:06 | -37.00703 | 174.79716 | 17 ft | 12 kts | 328° |
| 2026-05-07 10:06 | -37.00672 | 174.79684 | 32 ft | 4 kts | 314° |
| 2026-05-07 10:07 | -37.00649 | 174.79600 | 32 ft | 16 kts | 259° |
| 2026-05-07 10:07 | -37.00707 | 174.79417 | 32 ft | 29 kts | 251° |
| 2026-05-07 10:07 | -37.00747 | 174.79260 | 31 ft | 9 kts | 252° |
| 2026-05-07 10:07 | -37.00756 | 174.79225 | 32 ft | 11 kts | 252° |
| 2026-05-07 10:08 | -37.00773 | 174.79138 | 32 ft | 0 kts | 281° |
| 2026-05-07 10:08 | -37.00754 | 174.79115 | 31 ft | 8 kts | 329° |
| 2026-05-07 10:08 | -37.00724 | 174.79101 | 32 ft | 0 kts | 345° |
| 2026-05-07 10:08 | -37.00720 | 174.79100 | 32 ft | 0 kts | 343° |